Wetterdaten: Mittwoch, 07.06.2023
Datum Zeit Temp. Aussen Temp. o. S. Temp +5cm Feuchte Auss Luftdruck Regen Sonnenschein Regendauer Solar Windben Empfang
07.06.2023 00:00 20,5 C 19,4 C 16,1 C 68 % 1019,4 hPa 0,0 l/m 0 min 0 min 0 W/m 3,2 km/h (1 Bft) 93,62 %
07.06.2023 00:02 20,5 C 19,4 C 16,1 C 69 % 1019,5 hPa 0,0 l/m 0 min 0 min 0 W/m 3,2 km/h (1 Bft) 90,00 %
07.06.2023 00:04 20,5 C 19,4 C 16,1 C 69 % 1019,4 hPa 0,0 l/m 0 min 0 min 0 W/m 3,2 km/h (1 Bft) 93,18 %
07.06.2023 00:07 20,4 C 19,4 C 16,1 C 69 % 1019,5 hPa 0,0 l/m 0 min 0 min 0 W/m 6,4 km/h (2 Bft) 93,18 %
07.06.2023 00:08 20,4 C 19,4 C 16,1 C 69 % 1019,5 hPa 0,0 l/m 0 min 0 min 0 W/m 6,4 km/h (2 Bft) 91,58 %
07.06.2023 00:10 20,4 C 19,4 C 16,1 C 70 % 1019,5 hPa 0,0 l/m 0 min 0 min 0 W/m 3,2 km/h (1 Bft) 93,62 %
07.06.2023 00:12 20,4 C 19,4 C 16,1 C 70 % 1019,5 hPa 0,0 l/m 0 min 0 min 0 W/m 9,7 km/h (2 Bft) 91,49 %
07.06.2023 00:14 20,4 C 19,4 C 16,1 C 70 % 1019,4 hPa 0,0 l/m 0 min 0 min 0 W/m 6,4 km/h (2 Bft) 92,73 %
07.06.2023 00:16 20,3 C 19,4 C 16,1 C 70 % 1019,4 hPa 0,0 l/m 0 min 0 min 0 W/m 6,4 km/h (2 Bft) 94,44 %
07.06.2023 00:18 20,3 C 19,4 C 16,1 C 70 % 1019,5 hPa 0,0 l/m 0 min 0 min 0 W/m 3,2 km/h (1 Bft) 91,49 %
07.06.2023 00:20 20,3 C 19,4 C 15,6 C 71 % 1019,4 hPa 0,0 l/m 0 min 0 min 0 W/m 9,7 km/h (2 Bft) 91,49 %
07.06.2023 00:22 20,3 C 19,4 C 15,6 C 71 % 1019,4 hPa 0,0 l/m 0 min 0 min 0 W/m 6,4 km/h (2 Bft) 95,74 %
07.06.2023 00:24 20,2 C 19,4 C 15,6 C 71 % 1019,4 hPa 0,0 l/m 0 min 0 min 0 W/m 6,4 km/h (2 Bft) 93,62 %
07.06.2023 00:26 20,2 C 19,4 C 15,6 C 71 % 1019,4 hPa 0,0 l/m 0 min 0 min 0 W/m 6,4 km/h (2 Bft) 93,48 %
07.06.2023 00:28 20,2 C 18,9 C 15,6 C 71 % 1019,4 hPa 0,0 l/m 0 min 0 min 0 W/m 9,7 km/h (2 Bft) 95,74 %
07.06.2023 00:30 20,2 C 18,9 C 15,6 C 71 % 1019,4 hPa 0,0 l/m 0 min 0 min 0 W/m 6,4 km/h (2 Bft) 95,74 %
07.06.2023 00:32 20,1 C 18,9 C 15,6 C 72 % 1019,4 hPa 0,0 l/m 0 min 0 min 0 W/m 9,7 km/h (2 Bft) 95,74 %
07.06.2023 00:34 20,1 C 18,9 C 15,6 C 71 % 1019,3 hPa 0,0 l/m 0 min 0 min 0 W/m 3,2 km/h (1 Bft) 95,83 %
07.06.2023 00:36 20,1 C 18,9 C 15,6 C 72 % 1019,4 hPa 0,0 l/m 0 min 0 min 0 W/m 6,4 km/h (2 Bft) 97,87 %
07.06.2023 00:38 20,1 C 18,9 C 15,6 C 72 % 1019,4 hPa 0,0 l/m 0 min 0 min 0 W/m 6,4 km/h (2 Bft) 97,87 %
07.06.2023 00:40 20,1 C 18,9 C 15,6 C 72 % 1019,4 hPa 0,0 l/m 0 min 0 min 0 W/m 12,9 km/h (3 Bft) 97,83 %
07.06.2023 00:42 20,0 C 18,9 C 15,6 C 72 % 1019,4 hPa 0,0 l/m 0 min 0 min 0 W/m 12,9 km/h (3 Bft) 100,00 %
07.06.2023 00:44 19,9 C 18,9 C 15,6 C 72 % 1019,4 hPa 0,0 l/m 0 min 0 min 0 W/m 6,4 km/h (2 Bft) 97,96 %
07.06.2023 00:46 19,9 C 18,9 C 15,6 C 72 % 1019,5 hPa 0,0 l/m 0 min 0 min 0 W/m 12,9 km/h (3 Bft) 100,00 %
07.06.2023 00:48 19,9 C 18,9 C 15,6 C 72 % 1019,4 hPa 0,0 l/m 0 min 0 min 0 W/m 6,4 km/h (2 Bft) 100,00 %
07.06.2023 00:50 19,9 C 18,9 C 15,6 C 72 % 1019,5 hPa 0,0 l/m 0 min 0 min 0 W/m 3,2 km/h (1 Bft) 100,00 %
07.06.2023 00:52 19,8 C 18,9 C 15,6 C 73 % 1019,4 hPa 0,0 l/m 0 min 0 min 0 W/m 6,4 km/h (2 Bft) 97,87 %
07.06.2023 00:54 19,8 C 18,9 C 15,6 C 73 % 1019,5 hPa 0,0 l/m 0 min 0 min 0 W/m 6,4 km/h (2 Bft) 97,87 %
07.06.2023 00:56 19,8 C 18,9 C 15,6 C 73 % 1019,4 hPa 0,0 l/m 0 min 0 min 0 W/m 12,9 km/h (3 Bft) 100,00 %
07.06.2023 00:58 19,7 C 18,9 C 15,6 C 73 % 1019,5 hPa 0,0 l/m 0 min 0 min 0 W/m 9,7 km/h (2 Bft) 100,00 %
07.06.2023 01:00 19,7 C 18,9 C 15,6 C 73 % 1019,4 hPa 0,0 l/m 0 min 0 min 0 W/m 3,2 km/h (1 Bft) 97,87 %
07.06.2023 01:02 19,7 C 18,9 C 15,6 C 73 % 1019,4 hPa 0,0 l/m 0 min 0 min 0 W/m 6,4 km/h (2 Bft) 100,00 %
07.06.2023 01:04 19,6 C 18,3 C 15,0 C 73 % 1019,4 hPa 0,0 l/m 0 min 0 min 0 W/m 6,4 km/h (2 Bft) 97,92 %
07.06.2023 01:06 19,6 C 18,3 C 15,0 C 73 % 1019,4 hPa 0,0 l/m 0 min 0 min 0 W/m 9,7 km/h (2 Bft) 100,00 %
07.06.2023 01:08 19,6 C 18,3 C 15,0 C 73 % 1019,4 hPa 0,0 l/m 0 min 0 min 0 W/m 6,4 km/h (2 Bft) 100,00 %
07.06.2023 01:10 19,6 C 18,3 C 15,0 C 74 % 1019,4 hPa 0,0 l/m 0 min 0 min 0 W/m 6,4 km/h (2 Bft) 100,00 %
07.06.2023 01:12 19,5 C 18,3 C 15,0 C 74 % 1019,4 hPa 0,0 l/m 0 min 0 min 0 W/m 12,9 km/h (3 Bft) 100,00 %
07.06.2023 01:14 19,5 C 18,3 C 15,0 C 74 % 1019,4 hPa 0,0 l/m 0 min 0 min 0 W/m 9,7 km/h (2 Bft) 100,00 %
07.06.2023 01:16 19,4 C 18,3 C 15,0 C 74 % 1019,4 hPa 0,0 l/m 0 min 0 min 0 W/m 6,4 km/h (2 Bft) 97,83 %
07.06.2023 01:18 19,4 C 18,3 C 15,0 C 74 % 1019,4 hPa 0,0 l/m 0 min 0 min 0 W/m 6,4 km/h (2 Bft) 97,87 %
07.06.2023 01:20 19,3 C 18,3 C 15,0 C 74 % 1019,4 hPa 0,0 l/m 0 min 0 min 0 W/m 6,4 km/h (2 Bft) 100,00 %
07.06.2023 01:22 19,3 C 18,3 C 15,0 C 74 % 1019,5 hPa 0,0 l/m 0 min 0 min 0 W/m 6,4 km/h (2 Bft) 100,00 %
07.06.2023 01:24 19,3 C 18,3 C 15,0 C 74 % 1019,5 hPa 0,0 l/m 0 min 0 min 0 W/m 6,4 km/h (2 Bft) 100,00 %
07.06.2023 01:26 19,3 C 18,3 C 15,0 C 74 % 1019,4 hPa 0,0 l/m 0 min 0 min 0 W/m 6,4 km/h (2 Bft) 97,87 %
07.06.2023 01:28 19,3 C 18,3 C 15,0 C 74 % 1019,4 hPa 0,0 l/m 0 min 0 min 0 W/m 6,4 km/h (2 Bft) 100,00 %
07.06.2023 01:30 19,2 C 18,3 C 14,4 C 74 % 1019,4 hPa 0,0 l/m 0 min 0 min 0 W/m 12,9 km/h (3 Bft) 100,00 %
07.06.2023 01:32 19,2 C 18,3 C 14,4 C 74 % 1019,4 hPa 0,0 l/m 0 min 0 min 0 W/m 3,2 km/h (1 Bft) 97,87 %
07.06.2023 01:34 19,2 C 17,8 C 14,4 C 75 % 1019,4 hPa 0,0 l/m 0 min 0 min 0 W/m 3,2 km/h (1 Bft) 100,00 %
07.06.2023 01:36 19,1 C 17,8 C 14,4 C 75 % 1019,4 hPa 0,0 l/m 0 min 0 min 0 W/m 3,2 km/h (1 Bft) 100,00 %
07.06.2023 01:38 19,1 C 17,8 C 14,4 C 75 % 1019,4 hPa 0,0 l/m 0 min 0 min 0 W/m 3,2 km/h (1 Bft) 97,87 %
07.06.2023 01:40 19,1 C 17,8 C 14,4 C 75 % 1019,4 hPa 0,0 l/m 0 min 0 min 0 W/m 3,2 km/h (1 Bft) 100,00 %
07.06.2023 01:42 19,0 C 17,8 C 14,4 C 75 % 1019,4 hPa 0,0 l/m 0 min 0 min 0 W/m 3,2 km/h (1 Bft) 93,62 %
07.06.2023 01:44 19,0 C 17,8 C 14,4 C 75 % 1019,4 hPa 0,0 l/m 0 min 0 min 0 W/m 3,2 km/h (1 Bft) 100,00 %
07.06.2023 01:46 18,9 C 17,8 C 14,4 C 75 % 1019,4 hPa 0,0 l/m 0 min 0 min 0 W/m 6,4 km/h (2 Bft) 95,65 %
07.06.2023 01:48 18,9 C 17,8 C 14,4 C 75 % 1019,4 hPa 0,0 l/m 0 min 0 min 0 W/m 3,2 km/h (1 Bft) 100,00 %
07.06.2023 01:50 18,8 C 17,8 C 14,4 C 75 % 1019,4 hPa 0,0 l/m 0 min 0 min 0 W/m 3,2 km/h (1 Bft) 100,00 %
07.06.2023 01:52 18,8 C 17,8 C 14,4 C 75 % 1019,3 hPa 0,0 l/m 0 min 0 min 0 W/m 3,2 km/h (1 Bft) 97,87 %
07.06.2023 01:54 18,8 C 17,8 C 14,4 C 75 % 1019,3 hPa 0,0 l/m 0 min 0 min 0 W/m 3,2 km/h (1 Bft) 97,87 %
07.06.2023 01:56 18,7 C 17,2 C 13,9 C 76 % 1019,4 hPa 0,0 l/m 0 min 0 min 0 W/m 3,2 km/h (1 Bft) 95,74 %
07.06.2023 01:58 18,7 C 17,2 C 13,9 C 76 % 1019,4 hPa 0,0 l/m 0 min 0 min 0 W/m 3,2 km/h (1 Bft) 97,87 %
07.06.2023 02:00 18,7 C 17,2 C 13,9 C 76 % 1019,4 hPa 0,0 l/m 0 min 0 min 0 W/m 0,0 km/h (0 Bft) 97,87 %
07.06.2023 02:02 18,7 C 17,2 C 13,9 C 76 % 1019,5 hPa 0,0 l/m 0 min 0 min 0 W/m 3,2 km/h (1 Bft) 97,83 %
07.06.2023 02:04 18,6 C 17,2 C 13,9 C 76 % 1019,4 hPa 0,0 l/m 0 min 0 min 0 W/m 0,0 km/h (0 Bft) 97,87 %
07.06.2023 02:06 18,6 C 17,2 C 13,9 C 76 % 1019,4 hPa 0,0 l/m 0 min 0 min 0 W/m 3,2 km/h (1 Bft) 94,92 %
07.06.2023 02:08 18,6 C 17,2 C 13,9 C 76 % 1019,4 hPa 0,0 l/m 0 min 0 min 0 W/m 0,0 km/h (0 Bft) 100,00 %
07.06.2023 02:10 18,5 C 17,2 C 13,9 C 76 % 1019,4 hPa 0,0 l/m 0 min 0 min 0 W/m 3,2 km/h (1 Bft) 97,87 %
07.06.2023 02:12 18,4 C 17,2 C 13,9 C 76 % 1019,4 hPa 0,0 l/m 0 min 0 min 0 W/m 0,0 km/h (0 Bft) 97,87 %
07.06.2023 02:14 18,4 C 17,2 C 13,9 C 77 % 1019,4 hPa 0,0 l/m 0 min 0 min 0 W/m 0,0 km/h (0 Bft) 95,74 %
07.06.2023 02:16 18,4 C 17,2 C 13,9 C 77 % 1019,5 hPa 0,0 l/m 0 min 0 min 0 W/m 0,0 km/h (0 Bft) 97,87 %
07.06.2023 02:18 18,3 C 17,2 C 13,9 C 77 % 1019,5 hPa 0,0 l/m 0 min 0 min 0 W/m 0,0 km/h (0 Bft) 95,65 %
07.06.2023 02:20 18,3 C 16,7 C 13,9 C 77 % 1019,5 hPa 0,0 l/m 0 min 0 min 0 W/m 0,0 km/h (0 Bft) 97,87 %
07.06.2023 02:22 18,3 C 16,7 C 13,9 C 77 % 1019,5 hPa 0,0 l/m 0 min 0 min 0 W/m 0,0 km/h (0 Bft) 100,00 %
07.06.2023 02:24 18,2 C 16,7 C 13,9 C 77 % 1019,5 hPa 0,0 l/m 0 min 0 min 0 W/m 0,0 km/h (0 Bft) 95,83 %
07.06.2023 02:26 18,2 C 16,7 C 13,9 C 77 % 1019,6 hPa 0,0 l/m 0 min 0 min 0 W/m 0,0 km/h (0 Bft) 100,00 %
07.06.2023 02:28 18,2 C 16,7 C 13,3 C 77 % 1019,6 hPa 0,0 l/m 0 min 0 min 0 W/m 0,0 km/h (0 Bft) 97,87 %
07.06.2023 02:30 18,1 C 16,7 C 13,3 C 78 % 1019,6 hPa 0,0 l/m 0 min 0 min 0 W/m 0,0 km/h (0 Bft) 95,74 %
07.06.2023 02:32 18,1 C 16,7 C 13,3 C 78 % 1019,6 hPa 0,0 l/m 0 min 0 min 0 W/m 0,0 km/h (0 Bft) 54,55 %
07.06.2023 02:34 18,1 C 16,7 C 13,3 C 78 % 1019,5 hPa 0,0 l/m 0 min 0 min 0 W/m 0,0 km/h (0 Bft) 96,88 %
07.06.2023 02:36 18,0 C 16,7 C 13,3 C 78 % 1019,6 hPa 0,0 l/m 0 min 0 min 0 W/m 0,0 km/h (0 Bft) 100,00 %
07.06.2023 02:38 18,0 C 16,7 C 13,3 C 78 % 1019,6 hPa 0,0 l/m 0 min 0 min 0 W/m 0,0 km/h (0 Bft) 97,87 %
07.06.2023 02:40 18,0 C 16,7 C 13,3 C 78 % 1019,6 hPa 0,0 l/m 0 min 0 min 0 W/m 0,0 km/h (0 Bft) 97,87 %
07.06.2023 02:42 17,9 C 16,7 C 13,3 C 78 % 1019,6 hPa 0,0 l/m 0 min 0 min 0 W/m 0,0 km/h (0 Bft) 97,87 %
07.06.2023 02:44 17,9 C 16,7 C 13,3 C 78 % 1019,5 hPa 0,0 l/m 0 min 0 min 0 W/m 0,0 km/h (0 Bft) 97,87 %
07.06.2023 02:46 17,9 C 16,1 C 13,3 C 79 % 1019,6 hPa 0,0 l/m 0 min 0 min 0 W/m 0,0 km/h (0 Bft) 97,83 %
07.06.2023 02:48 17,9 C 16,1 C 13,3 C 79 % 1019,5 hPa 0,0 l/m 0 min 0 min 0 W/m 0,0 km/h (0 Bft) 97,87 %
07.06.2023 02:50 17,8 C 16,1 C 12,8 C 79 % 1019,6 hPa 0,0 l/m 0 min 0 min 0 W/m 0,0 km/h (0 Bft) 95,74 %
07.06.2023 02:52 17,8 C 16,1 C 12,8 C 79 % 1019,6 hPa 0,0 l/m 0 min 0 min 0 W/m 0,0 km/h (0 Bft) 95,74 %
07.06.2023 02:54 17,7 C 16,1 C 12,8 C 79 % 1019,6 hPa 0,0 l/m 0 min 0 min 0 W/m 0,0 km/h (0 Bft) 93,62 %
07.06.2023 02:56 17,7 C 16,1 C 12,8 C 79 % 1019,6 hPa 0,0 l/m 0 min 0 min 0 W/m 0,0 km/h (0 Bft) 93,62 %
07.06.2023 02:58 17,7 C 16,1 C 12,8 C 79 % 1019,6 hPa 0,0 l/m 0 min 0 min 0 W/m 0,0 km/h (0 Bft) 91,49 %
07.06.2023 03:00 17,6 C 16,1 C 12,8 C 79 % 1019,5 hPa 0,0 l/m 0 min 0 min 0 W/m 0,0 km/h (0 Bft) 93,62 %
07.06.2023 03:02 17,6 C 16,1 C 12,8 C 79 % 1019,6 hPa 0,0 l/m 0 min 0 min 0 W/m 0,0 km/h (0 Bft) 95,74 %
07.06.2023 03:04 17,6 C 16,1 C 12,8 C 80 % 1019,6 hPa 0,0 l/m 0 min 0 min 0 W/m 0,0 km/h (0 Bft) 95,83 %
07.06.2023 03:06 17,5 C 16,1 C 12,8 C 79 % 1019,6 hPa 0,0 l/m 0 min 0 min 0 W/m 0,0 km/h (0 Bft) 93,62 %
07.06.2023 03:08 17,4 C 16,1 C 12,8 C 79 % 1019,6 hPa 0,0 l/m 0 min 0 min 0 W/m 0,0 km/h (0 Bft) 93,62 %
07.06.2023 03:10 17,4 C 16,1 C 12,8 C 79 % 1019,5 hPa 0,0 l/m 0 min 0 min 0 W/m 0,0 km/h (0 Bft) 95,74 %
07.06.2023 03:12 17,3 C 16,1 C 12,8 C 79 % 1019,5 hPa 0,0 l/m 0 min 0 min 0 W/m 0,0 km/h (0 Bft) 97,87 %
07.06.2023 03:14 17,3 C 15,6 C 12,8 C 80 % 1019,5 hPa 0,0 l/m 0 min 0 min 0 W/m 0,0 km/h (0 Bft) 97,83 %
07.06.2023 03:16 17,3 C 15,6 C 12,8 C 80 % 1019,5 hPa 0,0 l/m 0 min 0 min 0 W/m 0,0 km/h (0 Bft) 100,00 %
07.06.2023 03:18 17,2 C 15,6 C 12,8 C 80 % 1019,6 hPa 0,0 l/m 0 min 0 min 0 W/m 0,0 km/h (0 Bft) 97,30 %
07.06.2023 03:20 17,2 C 15,6 C 12,8 C 80 % 1019,6 hPa 0,0 l/m 0 min 0 min 0 W/m 0,0 km/h (0 Bft) 98,18 %
07.06.2023 03:22 17,2 C 15,6 C 12,8 C 80 % 1019,5 hPa 0,0 l/m 0 min 0 min 0 W/m 0,0 km/h (0 Bft) 98,04 %
07.06.2023 03:24 17,1 C 15,6 C 12,2 C 81 % 1019,6 hPa 0,0 l/m 0 min 0 min 0 W/m 0,0 km/h (0 Bft) 97,14 %
07.06.2023 03:26 17,1 C 15,6 C 12,2 C 81 % 1019,6 hPa 0,0 l/m 0 min 0 min 0 W/m 0,0 km/h (0 Bft) 97,87 %
07.06.2023 03:28 17,0 C 15,0 C 12,2 C 81 % 1019,5 hPa 0,0 l/m 0 min 0 min 0 W/m 0,0 km/h (0 Bft) 95,65 %
07.06.2023 03:30 16,9 C 15,0 C 12,2 C 81 % 1019,5 hPa 0,0 l/m 0 min 0 min 0 W/m 0,0 km/h (0 Bft) 96,30 %
07.06.2023 03:32 16,9 C 15,0 C 12,2 C 81 % 1019,5 hPa 0,0 l/m 0 min 0 min 0 W/m 0,0 km/h (0 Bft) 95,74 %
07.06.2023 03:34 16,8 C 15,0 C 12,2 C 81 % 1019,5 hPa 0,0 l/m 0 min 0 min 0 W/m 0,0 km/h (0 Bft) 97,50 %
07.06.2023 03:36 16,8 C 15,6 C 12,2 C 82 % 1019,5 hPa 0,0 l/m 0 min 0 min 0 W/m 0,0 km/h (0 Bft) 94,92 %
07.06.2023 03:38 16,7 C 15,0 C 12,2 C 82 % 1019,5 hPa 0,0 l/m 0 min 0 min 0 W/m 0,0 km/h (0 Bft) 97,14 %
07.06.2023 03:40 16,7 C 15,0 C 12,2 C 82 % 1019,4 hPa 0,0 l/m 0 min 0 min 0 W/m 0,0 km/h (0 Bft) 95,74 %
07.06.2023 03:42 16,7 C 15,6 C 12,2 C 82 % 1019,4 hPa 0,0 l/m 0 min 0 min 0 W/m 0,0 km/h (0 Bft) 95,65 %
07.06.2023 03:44 16,6 C 15,6 C 12,2 C 82 % 1019,5 hPa 0,0 l/m 0 min 0 min 0 W/m 0,0 km/h (0 Bft) 97,87 %
07.06.2023 03:46 16,6 C 15,6 C 12,2 C 82 % 1019,5 hPa 0,0 l/m 0 min 0 min 0 W/m 0,0 km/h (0 Bft) 93,62 %
07.06.2023 03:48 16,6 C 15,6 C 12,2 C 82 % 1019,5 hPa 0,0 l/m 0 min 0 min 0 W/m 0,0 km/h (0 Bft) 95,74 %
07.06.2023 03:50 16,6 C 15,6 C 12,2 C 83 % 1019,5 hPa 0,0 l/m 0 min 0 min 0 W/m 0,0 km/h (0 Bft) 95,74 %
07.06.2023 03:52 16,5 C 15,6 C 12,2 C 83 % 1019,5 hPa 0,0 l/m 0 min 0 min 0 W/m 0,0 km/h (0 Bft) 93,62 %
07.06.2023 03:54 16,4 C 15,6 C 12,2 C 83 % 1019,5 hPa 0,0 l/m 0 min 0 min 0 W/m 0,0 km/h (0 Bft) 95,74 %
07.06.2023 03:56 16,4 C 15,6 C 12,2 C 83 % 1019,5 hPa 0,0 l/m 0 min 0 min 0 W/m 0,0 km/h (0 Bft) 97,83 %
07.06.2023 03:58 16,4 C 15,0 C 12,2 C 83 % 1019,4 hPa 0,0 l/m 0 min 0 min 0 W/m 0,0 km/h (0 Bft) 97,87 %
07.06.2023 04:00 16,4 C 15,0 C 12,2 C 83 % 1019,5 hPa 0,0 l/m 0 min 0 min 0 W/m 0,0 km/h (0 Bft) 97,87 %
07.06.2023 04:02 16,4 C 15,6 C 12,2 C 83 % 1019,4 hPa 0,0 l/m 0 min 0 min 0 W/m 0,0 km/h (0 Bft) 100,00 %
07.06.2023 04:04 16,3 C 15,6 C 12,2 C 83 % 1019,4 hPa 0,0 l/m 0 min 0 min 0 W/m 0,0 km/h (0 Bft) 93,75 %
07.06.2023 04:06 16,3 C 15,6 C 12,2 C 83 % 1019,4 hPa 0,0 l/m 0 min 0 min 0 W/m 0,0 km/h (0 Bft) 98,28 %
07.06.2023 04:08 16,3 C 15,6 C 12,2 C 83 % 1019,4 hPa 0,0 l/m 0 min 0 min 0 W/m 0,0 km/h (0 Bft) 100,00 %
07.06.2023 04:10 16,3 C 15,0 C 12,2 C 83 % 1019,4 hPa 0,0 l/m 0 min 0 min 0 W/m 0,0 km/h (0 Bft) 95,74 %
07.06.2023 04:12 16,3 C 15,6 C 12,2 C 83 % 1019,4 hPa 0,0 l/m 0 min 0 min 0 W/m 0,0 km/h (0 Bft) 100,00 %
07.06.2023 04:14 16,3 C 15,6 C 12,2 C 83 % 1019,4 hPa 0,0 l/m 0 min 0 min 0 W/m 0,0 km/h (0 Bft) 100,00 %
07.06.2023 04:16 16,2 C 15,0 C 12,2 C 83 % 1019,4 hPa 0,0 l/m 0 min 0 min 0 W/m 0,0 km/h (0 Bft) 100,00 %
07.06.2023 04:18 16,2 C 15,0 C 12,2 C 83 % 1019,4 hPa 0,0 l/m 0 min 0 min 0 W/m 0,0 km/h (0 Bft) 97,87 %
07.06.2023 04:20 16,2 C 15,0 C 12,2 C 83 % 1019,3 hPa 0,0 l/m 0 min 0 min 0 W/m 0,0 km/h (0 Bft) 100,00 %
07.06.2023 04:22 16,2 C 15,0 C 12,2 C 83 % 1019,3 hPa 0,0 l/m 0 min 0 min 0 W/m 0,0 km/h (0 Bft) 100,00 %
07.06.2023 04:24 16,2 C 15,0 C 12,2 C 83 % 1019,3 hPa 0,0 l/m 0 min 0 min 0 W/m 0,0 km/h (0 Bft) 97,87 %
07.06.2023 04:26 16,2 C 15,0 C 12,2 C 83 % 1019,3 hPa 0,0 l/m 0 min 0 min 0 W/m 0,0 km/h (0 Bft) 97,83 %
07.06.2023 04:28 16,2 C 15,0 C 12,2 C 83 % 1019,3 hPa 0,0 l/m 0 min 0 min 0 W/m 0,0 km/h (0 Bft) 100,00 %
07.06.2023 04:30 16,1 C 15,0 C 11,7 C 83 % 1019,3 hPa 0,0 l/m 0 min 0 min 0 W/m 0,0 km/h (0 Bft) 100,00 %
07.06.2023 04:32 16,1 C 15,0 C 11,7 C 83 % 1019,3 hPa 0,0 l/m 0 min 0 min 0 W/m 0,0 km/h (0 Bft) 100,00 %
07.06.2023 04:34 16,1 C 15,0 C 11,7 C 83 % 1019,3 hPa 0,0 l/m 0 min 0 min 0 W/m 0,0 km/h (0 Bft) 98,15 %
07.06.2023 04:36 16,1 C 15,0 C 11,7 C 84 % 1019,3 hPa 0,0 l/m 0 min 0 min 0 W/m 0,0 km/h (0 Bft) 100,00 %
07.06.2023 04:38 16,1 C 15,0 C 11,7 C 84 % 1019,3 hPa 0,0 l/m 0 min 0 min 0 W/m 0,0 km/h (0 Bft) 100,00 %
07.06.2023 04:40 16,1 C 15,0 C 11,7 C 84 % 1019,3 hPa 0,0 l/m 0 min 0 min 0 W/m 0,0 km/h (0 Bft) 97,83 %
07.06.2023 04:42 16,0 C 15,0 C 11,7 C 84 % 1019,3 hPa 0,0 l/m 0 min 0 min 0 W/m 0,0 km/h (0 Bft) 97,87 %
07.06.2023 04:44 16,0 C 15,0 C 11,7 C 84 % 1019,3 hPa 0,0 l/m 0 min 0 min 0 W/m 0,0 km/h (0 Bft) 95,74 %
07.06.2023 04:46 16,0 C 15,0 C 11,7 C 84 % 1019,3 hPa 0,0 l/m 0 min 0 min 0 W/m 0,0 km/h (0 Bft) 100,00 %
07.06.2023 04:48 16,0 C 15,0 C 11,7 C 84 % 1019,3 hPa 0,0 l/m 0 min 0 min 0 W/m 0,0 km/h (0 Bft) 100,00 %
07.06.2023 04:50 15,9 C 15,0 C 11,7 C 84 % 1019,3 hPa 0,0 l/m 0 min 0 min 0 W/m 0,0 km/h (0 Bft) 95,74 %
07.06.2023 04:52 15,9 C 15,0 C 11,7 C 84 % 1019,3 hPa 0,0 l/m 0 min 0 min 0 W/m 0,0 km/h (0 Bft) 100,00 %
07.06.2023 04:54 15,9 C 15,0 C 11,7 C 84 % 1019,2 hPa 0,0 l/m 0 min 0 min 0 W/m 0,0 km/h (0 Bft) 97,87 %
07.06.2023 04:56 15,9 C 15,0 C 11,7 C 84 % 1019,2 hPa 0,0 l/m 0 min 0 min 0 W/m 0,0 km/h (0 Bft) 97,83 %
07.06.2023 04:58 15,9 C 15,0 C 11,7 C 84 % 1019,2 hPa 0,0 l/m 0 min 0 min 0 W/m 0,0 km/h (0 Bft) 95,74 %
07.06.2023 05:00 15,9 C 15,0 C 11,7 C 84 % 1019,2 hPa 0,0 l/m 0 min 0 min 0 W/m 0,0 km/h (0 Bft) 97,87 %
07.06.2023 05:02 15,9 C 15,0 C 11,7 C 84 % 1019,2 hPa 0,0 l/m 0 min 0 min 0 W/m 0,0 km/h (0 Bft) 93,62 %
07.06.2023 05:04 15,9 C 15,0 C 11,7 C 84 % 1019,2 hPa 0,0 l/m 0 min 0 min 0 W/m 0,0 km/h (0 Bft) 97,87 %
07.06.2023 05:06 15,9 C 15,0 C 11,7 C 84 % 1019,3 hPa 0,0 l/m 0 min 0 min 0 W/m 0,0 km/h (0 Bft) 97,96 %
07.06.2023 05:08 15,9 C 15,0 C 12,2 C 84 % 1019,2 hPa 0,0 l/m 0 min 0 min 0 W/m 0,0 km/h (0 Bft) 97,87 %
07.06.2023 05:10 15,9 C 15,6 C 12,2 C 84 % 1019,3 hPa 0,0 l/m 0 min 0 min 0 W/m 3,2 km/h (1 Bft) 97,83 %
07.06.2023 05:12 15,9 C 15,6 C 12,2 C 84 % 1019,3 hPa 0,0 l/m 0 min 0 min 0 W/m 3,2 km/h (1 Bft) 93,62 %
07.06.2023 05:14 15,9 C 15,6 C 12,2 C 84 % 1019,2 hPa 0,0 l/m 0 min 0 min 0 W/m 3,2 km/h (1 Bft) 95,74 %
07.06.2023 05:16 15,9 C 15,6 C 12,2 C 84 % 1019,2 hPa 0,0 l/m 0 min 0 min 0 W/m 3,2 km/h (1 Bft) 95,74 %
07.06.2023 05:18 16,0 C 15,6 C 12,2 C 84 % 1019,2 hPa 0,0 l/m 0 min 0 min 0 W/m 3,2 km/h (1 Bft) 93,62 %
07.06.2023 05:20 16,0 C 15,6 C 12,2 C 84 % 1019,3 hPa 0,0 l/m 0 min 0 min 0 W/m 3,2 km/h (1 Bft) 93,62 %
07.06.2023 05:22 16,0 C 15,6 C 12,2 C 83 % 1019,2 hPa 0,0 l/m 0 min 0 min 0 W/m 3,2 km/h (1 Bft) 95,74 %
07.06.2023 05:24 16,0 C 15,6 C 12,2 C 83 % 1019,2 hPa 0,0 l/m 0 min 0 min 0 W/m 6,4 km/h (2 Bft) 95,65 %
07.06.2023 05:26 16,0 C 15,6 C 12,2 C 84 % 1019,2 hPa 0,0 l/m 0 min 0 min 0 W/m 3,2 km/h (1 Bft) 93,62 %
07.06.2023 05:28 16,0 C 15,6 C 12,2 C 83 % 1019,3 hPa 0,0 l/m 0 min 0 min 0 W/m 3,2 km/h (1 Bft) 95,74 %
07.06.2023 05:30 16,0 C 15,6 C 11,7 C 83 % 1019,3 hPa 0,0 l/m 0 min 0 min 0 W/m 3,2 km/h (1 Bft) 97,87 %
07.06.2023 05:32 16,0 C 15,6 C 11,7 C 83 % 1019,3 hPa 0,0 l/m 0 min 0 min 0 W/m 12,9 km/h (3 Bft) 93,62 %
07.06.2023 05:34 16,0 C 15,6 C 11,7 C 83 % 1019,2 hPa 0,0 l/m 0 min 0 min 0 W/m 6,4 km/h (2 Bft) 93,62 %
07.06.2023 05:36 16,0 C 15,6 C 11,7 C 83 % 1019,3 hPa 0,0 l/m 0 min 0 min 0 W/m 3,2 km/h (1 Bft) 95,74 %
07.06.2023 05:38 16,0 C 15,6 C 11,7 C 83 % 1019,3 hPa 0,0 l/m 0 min 0 min 0 W/m 3,2 km/h (1 Bft) 97,87 %
07.06.2023 05:40 16,0 C 15,6 C 11,7 C 83 % 1019,3 hPa 0,0 l/m 0 min 0 min 0 W/m 6,4 km/h (2 Bft) 97,83 %
07.06.2023 05:42 16,0 C 15,0 C 11,7 C 83 % 1019,3 hPa 0,0 l/m 0 min 0 min 4 W/m 6,4 km/h (2 Bft) 97,87 %
07.06.2023 05:44 16,0 C 15,0 C 12,2 C 83 % 1019,3 hPa 0,0 l/m 0 min 0 min 5 W/m 6,4 km/h (2 Bft) 95,74 %
07.06.2023 05:46 16,0 C 15,0 C 11,7 C 83 % 1019,4 hPa 0,0 l/m 0 min 0 min 6 W/m 3,2 km/h (1 Bft) 97,87 %
07.06.2023 05:48 16,0 C 15,0 C 11,7 C 83 % 1019,4 hPa 0,0 l/m 0 min 0 min 7 W/m 3,2 km/h (1 Bft) 100,00 %
07.06.2023 05:50 16,0 C 15,0 C 11,7 C 83 % 1019,4 hPa 0,0 l/m 0 min 0 min 7 W/m 3,2 km/h (1 Bft) 100,00 %
07.06.2023 05:52 15,9 C 15,0 C 11,7 C 83 % 1019,4 hPa 0,0 l/m 0 min 0 min 9 W/m 3,2 km/h (1 Bft) 100,00 %
07.06.2023 05:54 16,0 C 15,0 C 11,7 C 83 % 1019,4 hPa 0,0 l/m 0 min 0 min 11 W/m 0,0 km/h (0 Bft) 100,00 %
07.06.2023 05:56 15,9 C 15,0 C 11,7 C 83 % 1019,4 hPa 0,0 l/m 0 min 0 min 12 W/m 3,2 km/h (1 Bft) 100,00 %
07.06.2023 05:58 15,9 C 15,0 C 11,7 C 83 % 1019,4 hPa 0,0 l/m 0 min 0 min 13 W/m 6,4 km/h (2 Bft) 100,00 %
07.06.2023 06:00 15,9 C 15,0 C 11,7 C 83 % 1019,4 hPa 0,0 l/m 0 min 0 min 16 W/m 9,7 km/h (2 Bft) 100,00 %
07.06.2023 06:02 15,9 C 15,6 C 11,7 C 83 % 1019,3 hPa 0,0 l/m 0 min 0 min 17 W/m 0,0 km/h (0 Bft) 97,87 %
07.06.2023 06:04 15,9 C 15,6 C 11,7 C 83 % 1019,4 hPa 0,0 l/m 0 min 0 min 19 W/m 0,0 km/h (0 Bft) 100,00 %
07.06.2023 06:07 15,9 C 15,6 C 11,7 C 83 % 1019,3 hPa 0,0 l/m 0 min 0 min 23 W/m 0,0 km/h (0 Bft) 100,00 %
07.06.2023 06:08 15,9 C 15,6 C 11,7 C 83 % 1019,3 hPa 0,0 l/m 0 min 0 min 21 W/m 0,0 km/h (0 Bft) 98,95 %
07.06.2023 06:12 15,9 C 15,6 C 11,7 C 83 % 1019,4 hPa 0,0 l/m 0 min 0 min 27 W/m 0,0 km/h (0 Bft) 96,55 %
07.06.2023 06:14 15,9 C 15,6 C 11,7 C 83 % 1019,4 hPa 0,0 l/m 0 min 0 min 30 W/m 0,0 km/h (0 Bft) 97,87 %
07.06.2023 06:16 15,9 C 15,6 C 11,7 C 83 % 1019,3 hPa 0,0 l/m 0 min 0 min 35 W/m 0,0 km/h (0 Bft) 97,87 %
07.06.2023 06:18 16,0 C 15,6 C 11,7 C 83 % 1019,4 hPa 0,0 l/m 0 min 0 min 39 W/m 0,0 km/h (0 Bft) 97,87 %
07.06.2023 06:20 16,0 C 15,6 C 12,2 C 83 % 1019,4 hPa 0,0 l/m 0 min 0 min 44 W/m 0,0 km/h (0 Bft) 95,65 %
07.06.2023 06:22 16,0 C 15,6 C 12,2 C 83 % 1019,3 hPa 0,0 l/m 0 min 0 min 47 W/m 0,0 km/h (0 Bft) 97,87 %
07.06.2023 06:24 16,0 C 15,6 C 12,2 C 83 % 1019,3 hPa 0,0 l/m 0 min 0 min 48 W/m 3,2 km/h (1 Bft) 97,87 %
07.06.2023 06:26 16,0 C 15,6 C 12,2 C 83 % 1019,4 hPa 0,0 l/m 0 min 0 min 47 W/m 3,2 km/h (1 Bft) 97,87 %
07.06.2023 06:28 16,0 C 15,6 C 12,2 C 83 % 1019,4 hPa 0,0 l/m 0 min 0 min 47 W/m 3,2 km/h (1 Bft) 97,87 %
07.06.2023 06:30 16,1 C 15,6 C 12,2 C 83 % 1019,4 hPa 0,0 l/m 0 min 0 min 48 W/m 3,2 km/h (1 Bft) 95,74 %
07.06.2023 06:32 16,1 C 15,6 C 12,2 C 83 % 1019,4 hPa 0,0 l/m 0 min 0 min 47 W/m 3,2 km/h (1 Bft) 95,74 %
07.06.2023 06:34 16,1 C 15,6 C 12,2 C 83 % 1019,5 hPa 0,0 l/m 0 min 0 min 45 W/m 3,2 km/h (1 Bft) 97,83 %
07.06.2023 06:36 16,1 C 15,6 C 12,2 C 83 % 1019,5 hPa 0,0 l/m 0 min 0 min 41 W/m 6,4 km/h (2 Bft) 97,87 %
07.06.2023 06:38 16,1 C 15,6 C 12,2 C 83 % 1019,4 hPa 0,0 l/m 0 min 0 min 44 W/m 3,2 km/h (1 Bft) 95,74 %
07.06.2023 06:40 16,1 C 15,6 C 12,2 C 83 % 1019,4 hPa 0,0 l/m 0 min 0 min 47 W/m 6,4 km/h (2 Bft) 97,87 %
07.06.2023 06:42 16,1 C 15,6 C 12,2 C 83 % 1019,5 hPa 0,0 l/m 0 min 0 min 52 W/m 3,2 km/h (1 Bft) 95,74 %
07.06.2023 06:44 16,1 C 15,6 C 12,2 C 83 % 1019,4 hPa 0,0 l/m 0 min 0 min 54 W/m 6,4 km/h (2 Bft) 97,87 %
07.06.2023 06:46 16,1 C 15,6 C 12,2 C 82 % 1019,4 hPa 0,0 l/m 0 min 0 min 58 W/m 6,4 km/h (2 Bft) 97,87 %
07.06.2023 06:48 16,1 C 15,6 C 12,2 C 82 % 1019,5 hPa 0,0 l/m 0 min 0 min 60 W/m 6,4 km/h (2 Bft) 97,83 %
07.06.2023 06:50 16,1 C 15,6 C 12,2 C 82 % 1019,5 hPa 0,0 l/m 0 min 0 min 58 W/m 3,2 km/h (1 Bft) 97,87 %
07.06.2023 06:52 16,1 C 15,6 C 12,2 C 82 % 1019,5 hPa 0,0 l/m 0 min 0 min 58 W/m 6,4 km/h (2 Bft) 97,87 %
07.06.2023 06:54 16,2 C 15,6 C 12,2 C 82 % 1019,4 hPa 0,0 l/m 0 min 0 min 58 W/m 9,7 km/h (2 Bft) 95,74 %
07.06.2023 06:56 16,2 C 15,6 C 12,2 C 82 % 1019,4 hPa 0,0 l/m 0 min 0 min 59 W/m 3,2 km/h (1 Bft) 93,62 %
07.06.2023 06:58 16,2 C 15,6 C 12,2 C 82 % 1019,4 hPa 0,0 l/m 0 min 0 min 62 W/m 6,4 km/h (2 Bft) 97,87 %
07.06.2023 07:00 16,2 C 15,6 C 12,2 C 82 % 1019,4 hPa 0,0 l/m 0 min 0 min 64 W/m 3,2 km/h (1 Bft) 97,87 %
07.06.2023 07:02 16,2 C 15,6 C 12,2 C 82 % 1019,5 hPa 0,0 l/m 0 min 0 min 66 W/m 6,4 km/h (2 Bft) 100,00 %
07.06.2023 07:04 16,2 C 15,6 C 12,2 C 82 % 1019,5 hPa 0,0 l/m 0 min 0 min 69 W/m 6,4 km/h (2 Bft) 100,00 %
07.06.2023 07:06 16,2 C 15,6 C 12,2 C 82 % 1019,5 hPa 0,0 l/m 0 min 0 min 74 W/m 6,4 km/h (2 Bft) 97,87 %
07.06.2023 07:08 16,2 C 15,6 C 12,2 C 82 % 1019,6 hPa 0,0 l/m 0 min 0 min 76 W/m 6,4 km/h (2 Bft) 97,87 %
07.06.2023 07:10 16,2 C 15,6 C 12,2 C 82 % 1019,6 hPa 0,0 l/m 0 min 0 min 77 W/m 6,4 km/h (2 Bft) 93,62 %
07.06.2023 07:12 16,2 C 15,6 C 12,2 C 82 % 1019,6 hPa 0,0 l/m 0 min 0 min 79 W/m 12,9 km/h (3 Bft) 97,87 %
07.06.2023 07:14 16,2 C 15,6 C 12,2 C 82 % 1019,7 hPa 0,0 l/m 0 min 0 min 78 W/m 6,4 km/h (2 Bft) 97,87 %
07.06.2023 07:16 16,2 C 15,6 C 12,2 C 82 % 1019,6 hPa 0,0 l/m 0 min 0 min 77 W/m 6,4 km/h (2 Bft) 97,83 %
07.06.2023 07:18 16,2 C 15,6 C 12,2 C 82 % 1019,7 hPa 0,0 l/m 0 min 0 min 77 W/m 9,7 km/h (2 Bft) 95,74 %
07.06.2023 07:20 16,2 C 15,6 C 12,2 C 82 % 1019,7 hPa 0,0 l/m 0 min 0 min 78 W/m 6,4 km/h (2 Bft) 97,87 %
07.06.2023 07:22 16,2 C 15,6 C 12,2 C 82 % 1019,6 hPa 0,0 l/m 0 min 0 min 80 W/m 6,4 km/h (2 Bft) 97,87 %
07.06.2023 07:24 16,2 C 15,6 C 12,2 C 82 % 1019,6 hPa 0,0 l/m 0 min 0 min 81 W/m 9,7 km/h (2 Bft) 91,49 %
07.06.2023 07:26 16,2 C 15,6 C 12,2 C 82 % 1019,6 hPa 0,0 l/m 0 min 0 min 83 W/m 6,4 km/h (2 Bft) 97,87 %
07.06.2023 07:28 16,2 C 15,6 C 12,2 C 82 % 1019,6 hPa 0,0 l/m 0 min 0 min 87 W/m 6,4 km/h (2 Bft) 95,74 %
07.06.2023 07:30 16,1 C 15,6 C 12,2 C 82 % 1019,6 hPa 0,0 l/m 0 min 0 min 89 W/m 3,2 km/h (1 Bft) 97,87 %
07.06.2023 07:32 16,1 C 15,6 C 12,2 C 82 % 1019,6 hPa 0,0 l/m 0 min 0 min 91 W/m 9,7 km/h (2 Bft) 97,83 %
07.06.2023 07:34 16,1 C 16,1 C 12,2 C 82 % 1019,6 hPa 0,0 l/m 0 min 0 min 91 W/m 6,4 km/h (2 Bft) 97,87 %
07.06.2023 07:36 16,1 C 16,1 C 12,2 C 82 % 1019,6 hPa 0,0 l/m 0 min 0 min 90 W/m 6,4 km/h (2 Bft) 95,74 %
07.06.2023 07:38 16,2 C 16,1 C 12,2 C 82 % 1019,6 hPa 0,0 l/m 0 min 0 min 90 W/m 3,2 km/h (1 Bft) 97,87 %
07.06.2023 07:40 16,2 C 16,1 C 12,2 C 82 % 1019,7 hPa 0,0 l/m 0 min 0 min 95 W/m 6,4 km/h (2 Bft) 97,87 %
07.06.2023 07:42 16,2 C 16,1 C 12,2 C 82 % 1019,6 hPa 0,0 l/m 0 min 0 min 103 W/m 6,4 km/h (2 Bft) 97,87 %
07.06.2023 07:44 16,2 C 16,1 C 12,2 C 82 % 1019,7 hPa 0,0 l/m 0 min 0 min 116 W/m 6,4 km/h (2 Bft) 95,74 %
07.06.2023 07:46 16,2 C 16,1 C 12,2 C 82 % 1019,6 hPa 0,0 l/m 0 min 0 min 128 W/m 9,7 km/h (2 Bft) 97,83 %
07.06.2023 07:48 16,3 C 16,1 C 12,2 C 82 % 1019,6 hPa 0,0 l/m 0 min 0 min 127 W/m 3,2 km/h (1 Bft) 95,74 %
07.06.2023 07:50 16,3 C 16,1 C 12,8 C 82 % 1019,6 hPa 0,0 l/m 0 min 0 min 129 W/m 6,4 km/h (2 Bft) 97,87 %
07.06.2023 07:52 16,3 C 16,1 C 12,2 C 82 % 1019,7 hPa 0,0 l/m 0 min 0 min 127 W/m 6,4 km/h (2 Bft) 97,87 %
07.06.2023 07:54 16,3 C 16,7 C 12,2 C 82 % 1019,6 hPa 0,0 l/m 0 min 0 min 118 W/m 6,4 km/h (2 Bft) 97,87 %
07.06.2023 07:56 16,3 C 16,1 C 12,2 C 82 % 1019,6 hPa 0,0 l/m 0 min 0 min 109 W/m 12,9 km/h (3 Bft) 97,87 %
07.06.2023 07:58 16,3 C 16,1 C 12,2 C 82 % 1019,7 hPa 0,0 l/m 0 min 0 min 105 W/m 6,4 km/h (2 Bft) 97,87 %
07.06.2023 08:00 16,3 C 16,1 C 12,8 C 82 % 1019,8 hPa 0,0 l/m 0 min 0 min 120 W/m 6,4 km/h (2 Bft) 95,65 %
07.06.2023 08:02 16,3 C 16,1 C 12,2 C 82 % 1019,8 hPa 0,0 l/m 0 min 0 min 135 W/m 3,2 km/h (1 Bft) 91,49 %
07.06.2023 08:04 16,3 C 16,1 C 12,2 C 82 % 1019,8 hPa 0,0 l/m 0 min 0 min 139 W/m 3,2 km/h (1 Bft) 97,92 %
07.06.2023 08:06 16,3 C 16,1 C 12,2 C 82 % 1019,8 hPa 0,0 l/m 0 min 0 min 139 W/m 3,2 km/h (1 Bft) 97,87 %
07.06.2023 08:08 16,4 C 16,1 C 12,8 C 82 % 1019,8 hPa 0,0 l/m 0 min 0 min 135 W/m 6,4 km/h (2 Bft) 97,87 %
07.06.2023 08:10 16,4 C 16,1 C 12,8 C 82 % 1019,7 hPa 0,0 l/m 0 min 0 min 125 W/m 12,9 km/h (3 Bft) 95,74 %
07.06.2023 08:12 16,4 C 16,1 C 12,8 C 81 % 1019,7 hPa 0,0 l/m 0 min 0 min 127 W/m 6,4 km/h (2 Bft) 95,74 %
07.06.2023 08:14 16,4 C 16,1 C 12,8 C 82 % 1019,8 hPa 0,0 l/m 0 min 0 min 134 W/m 6,4 km/h (2 Bft) 97,83 %
07.06.2023 08:16 16,4 C 16,1 C 12,8 C 81 % 1019,8 hPa 0,0 l/m 0 min 0 min 140 W/m 0,0 km/h (0 Bft) 97,87 %
07.06.2023 08:18 16,4 C 16,7 C 12,8 C 82 % 1019,8 hPa 0,0 l/m 0 min 0 min 145 W/m 6,4 km/h (2 Bft) 97,87 %
07.06.2023 08:20 16,5 C 16,7 C 12,8 C 81 % 1019,8 hPa 0,0 l/m 0 min 0 min 147 W/m 6,4 km/h (2 Bft) 97,87 %
07.06.2023 08:22 16,5 C 16,7 C 12,8 C 81 % 1019,9 hPa 0,0 l/m 0 min 0 min 145 W/m 6,4 km/h (2 Bft) 95,74 %
07.06.2023 08:24 16,5 C 16,7 C 12,8 C 81 % 1019,9 hPa 0,0 l/m 0 min 0 min 139 W/m 3,2 km/h (1 Bft) 97,87 %
07.06.2023 08:26 16,5 C 16,7 C 12,8 C 81 % 1019,9 hPa 0,0 l/m 0 min 0 min 135 W/m 3,2 km/h (1 Bft) 97,87 %
07.06.2023 08:28 16,6 C 16,7 C 12,8 C 81 % 1019,9 hPa 0,0 l/m 0 min 0 min 137 W/m 6,4 km/h (2 Bft) 95,74 %
07.06.2023 08:30 16,6 C 16,7 C 12,8 C 81 % 1019,9 hPa 0,0 l/m 0 min 0 min 146 W/m 3,2 km/h (1 Bft) 93,48 %
07.06.2023 08:32 16,6 C 16,7 C 12,8 C 81 % 1019,9 hPa 0,0 l/m 0 min 0 min 160 W/m 9,7 km/h (2 Bft) 95,74 %
07.06.2023 08:34 16,6 C 16,7 C 12,8 C 81 % 1020,0 hPa 0,0 l/m 0 min 0 min 178 W/m 6,4 km/h (2 Bft) 100,00 %
07.06.2023 08:36 16,7 C 17,2 C 12,8 C 81 % 1019,9 hPa 0,0 l/m 0 min 0 min 196 W/m 3,2 km/h (1 Bft) 100,00 %
07.06.2023 08:38 16,7 C 17,2 C 13,3 C 81 % 1019,9 hPa 0,0 l/m 0 min 0 min 204 W/m 9,7 km/h (2 Bft) 100,00 %
07.06.2023 08:40 16,8 C 17,2 C 13,3 C 81 % 1019,9 hPa 0,0 l/m 0 min 0 min 204 W/m 3,2 km/h (1 Bft) 100,00 %
07.06.2023 08:42 16,9 C 17,2 C 13,3 C 81 % 1019,9 hPa 0,0 l/m 0 min 0 min 189 W/m 6,4 km/h (2 Bft) 100,00 %
07.06.2023 08:44 16,9 C 16,7 C 13,3 C 80 % 1020,0 hPa 0,0 l/m 0 min 0 min 164 W/m 6,4 km/h (2 Bft) 97,83 %
07.06.2023 08:46 16,9 C 16,7 C 13,3 C 80 % 1020,0 hPa 0,0 l/m 0 min 0 min 142 W/m 6,4 km/h (2 Bft) 100,00 %
07.06.2023 08:48 16,9 C 17,2 C 12,8 C 80 % 1020,0 hPa 0,0 l/m 0 min 0 min 126 W/m 12,9 km/h (3 Bft) 100,00 %
07.06.2023 08:50 16,9 C 16,7 C 12,8 C 80 % 1020,0 hPa 0,0 l/m 0 min 0 min 118 W/m 6,4 km/h (2 Bft) 100,00 %
07.06.2023 08:52 16,9 C 16,7 C 12,8 C 80 % 1020,1 hPa 0,0 l/m 0 min 0 min 122 W/m 6,4 km/h (2 Bft) 100,00 %
07.06.2023 08:54 16,9 C 16,7 C 12,8 C 80 % 1020,1 hPa 0,0 l/m 0 min 0 min 135 W/m 6,4 km/h (2 Bft) 100,00 %
07.06.2023 08:56 16,9 C 17,2 C 12,8 C 80 % 1020,1 hPa 0,0 l/m 0 min 0 min 151 W/m 3,2 km/h (1 Bft) 100,00 %
07.06.2023 08:58 16,9 C 17,2 C 13,3 C 80 % 1020,2 hPa 0,0 l/m 0 min 0 min 174 W/m 6,4 km/h (2 Bft) 100,00 %
07.06.2023 09:00 16,9 C 17,2 C 13,3 C 80 % 1020,3 hPa 0,0 l/m 0 min 0 min 202 W/m 3,2 km/h (1 Bft) 97,87 %
07.06.2023 09:02 17,0 C 17,2 C 13,3 C 80 % 1020,3 hPa 0,0 l/m 0 min 0 min 216 W/m 12,9 km/h (3 Bft) 98,00 %
07.06.2023 09:04 17,0 C 17,8 C 13,3 C 80 % 1020,2 hPa 0,0 l/m 0 min 0 min 213 W/m 12,9 km/h (3 Bft) 93,48 %
07.06.2023 09:06 17,0 C 17,2 C 13,3 C 80 % 1020,3 hPa 0,0 l/m 0 min 0 min 203 W/m 6,4 km/h (2 Bft) 96,67 %
07.06.2023 09:08 17,0 C 17,2 C 13,3 C 80 % 1020,3 hPa 0,0 l/m 0 min 0 min 191 W/m 9,7 km/h (2 Bft) 88,57 %
07.06.2023 09:10 17,0 C 17,2 C 13,3 C 80 % 1020,4 hPa 0,0 l/m 0 min 0 min 191 W/m 6,4 km/h (2 Bft) 95,74 %
07.06.2023 09:12 17,0 C 17,2 C 13,3 C 80 % 1020,4 hPa 0,0 l/m 0 min 0 min 189 W/m 6,4 km/h (2 Bft) 91,49 %
07.06.2023 09:14 17,1 C 17,8 C 13,3 C 80 % 1020,4 hPa 0,0 l/m 0 min 0 min 185 W/m 6,4 km/h (2 Bft) 95,74 %
07.06.2023 09:16 17,1 C 17,8 C 13,3 C 80 % 1020,3 hPa 0,0 l/m 0 min 0 min 185 W/m 3,2 km/h (1 Bft) 95,74 %
07.06.2023 09:18 17,1 C 17,2 C 13,3 C 80 % 1020,4 hPa 0,0 l/m 0 min 0 min 184 W/m 9,7 km/h (2 Bft) 95,65 %
07.06.2023 09:20 17,2 C 17,2 C 13,3 C 80 % 1020,3 hPa 0,0 l/m 0 min 0 min 182 W/m 6,4 km/h (2 Bft) 95,74 %
07.06.2023 09:22 17,2 C 17,2 C 13,3 C 80 % 1020,3 hPa 0,0 l/m 0 min 0 min 176 W/m 9,7 km/h (2 Bft) 95,74 %
07.06.2023 09:24 17,1 C 17,2 C 13,3 C 79 % 1020,3 hPa 0,0 l/m 0 min 0 min 168 W/m 3,2 km/h (1 Bft) 95,83 %
07.06.2023 09:26 17,2 C 17,2 C 13,3 C 80 % 1020,4 hPa 0,0 l/m 0 min 0 min 148 W/m 3,2 km/h (1 Bft) 95,74 %
07.06.2023 09:28 17,1 C 16,7 C 13,3 C 80 % 1020,4 hPa 0,0 l/m 0 min 0 min 138 W/m 6,4 km/h (2 Bft) 91,49 %
07.06.2023 09:30 17,1 C 16,7 C 13,3 C 80 % 1020,3 hPa 0,0 l/m 0 min 0 min 132 W/m 6,4 km/h (2 Bft) 95,74 %
07.06.2023 09:32 17,1 C 16,7 C 13,3 C 80 % 1020,4 hPa 0,0 l/m 0 min 0 min 135 W/m 6,4 km/h (2 Bft) 95,65 %
07.06.2023 09:34 17,1 C 16,7 C 13,3 C 80 % 1020,4 hPa 0,0 l/m 0 min 0 min 136 W/m 3,2 km/h (1 Bft) 95,74 %
07.06.2023 09:36 17,1 C 16,7 C 13,3 C 80 % 1020,4 hPa 0,0 l/m 0 min 0 min 138 W/m 12,9 km/h (3 Bft) 95,74 %
07.06.2023 09:38 17,1 C 16,7 C 13,3 C 80 % 1020,4 hPa 0,0 l/m 0 min 0 min 146 W/m 6,4 km/h (2 Bft) 97,87 %
07.06.2023 09:40 17,1 C 17,2 C 13,3 C 80 % 1020,5 hPa 0,0 l/m 0 min 0 min 148 W/m 12,9 km/h (3 Bft) 97,87 %
07.06.2023 09:42 17,1 C 16,7 C 13,3 C 79 % 1020,5 hPa 0,0 l/m 0 min 0 min 144 W/m 12,9 km/h (3 Bft) 97,87 %
07.06.2023 09:44 17,0 C 16,7 C 13,3 C 80 % 1020,5 hPa 0,0 l/m 0 min 0 min 142 W/m 9,7 km/h (2 Bft) 97,83 %
07.06.2023 09:46 16,9 C 16,7 C 12,8 C 80 % 1020,5 hPa 0,0 l/m 0 min 0 min 141 W/m 6,4 km/h (2 Bft) 97,87 %
07.06.2023 09:48 16,9 C 16,7 C 13,3 C 80 % 1020,6 hPa 0,0 l/m 0 min 0 min 139 W/m 6,4 km/h (2 Bft) 100,00 %
07.06.2023 09:50 16,9 C 16,7 C 13,3 C 80 % 1020,6 hPa 0,0 l/m 0 min 0 min 142 W/m 9,7 km/h (2 Bft) 97,87 %
07.06.2023 09:52 16,9 C 16,7 C 13,3 C 80 % 1020,6 hPa 0,0 l/m 0 min 0 min 145 W/m 6,4 km/h (2 Bft) 100,00 %
07.06.2023 09:54 16,9 C 17,2 C 13,3 C 80 % 1020,6 hPa 0,0 l/m 0 min 0 min 146 W/m 6,4 km/h (2 Bft) 100,00 %
07.06.2023 09:56 16,9 C 17,2 C 13,3 C 80 % 1020,6 hPa 0,0 l/m 0 min 0 min 142 W/m 9,7 km/h (2 Bft) 100,00 %
07.06.2023 09:58 17,0 C 17,2 C 13,3 C 80 % 1020,6 hPa 0,0 l/m 0 min 0 min 140 W/m 6,4 km/h (2 Bft) 100,00 %
07.06.2023 10:00 17,0 C 17,2 C 13,3 C 80 % 1020,6 hPa 0,0 l/m 0 min 0 min 137 W/m 3,2 km/h (1 Bft) 100,00 %
07.06.2023 10:02 17,0 C 16,7 C 13,3 C 80 % 1020,6 hPa 0,0 l/m 0 min 0 min 134 W/m 6,4 km/h (2 Bft) 100,00 %
07.06.2023 10:04 16,9 C 16,7 C 13,3 C 80 % 1020,6 hPa 0,0 l/m 0 min 0 min 130 W/m 6,4 km/h (2 Bft) 100,00 %
07.06.2023 10:06 16,9 C 16,7 C 12,8 C 80 % 1020,6 hPa 0,0 l/m 0 min 0 min 126 W/m 9,7 km/h (2 Bft) 100,00 %
07.06.2023 10:08 16,9 C 16,7 C 12,8 C 80 % 1020,6 hPa 0,0 l/m 0 min 0 min 125 W/m 12,9 km/h (3 Bft) 100,00 %
07.06.2023 10:10 16,8 C 16,7 C 12,8 C 80 % 1020,6 hPa 0,0 l/m 0 min 0 min 129 W/m 6,4 km/h (2 Bft) 100,00 %
07.06.2023 10:12 16,8 C 16,1 C 12,8 C 80 % 1020,5 hPa 0,0 l/m 0 min 0 min 139 W/m 12,9 km/h (3 Bft) 97,87 %
07.06.2023 10:14 16,7 C 16,7 C 12,8 C 80 % 1020,5 hPa 0,0 l/m 0 min 0 min 151 W/m 3,2 km/h (1 Bft) 100,00 %
07.06.2023 10:16 16,7 C 16,7 C 12,8 C 81 % 1020,5 hPa 0,0 l/m 0 min 0 min 161 W/m 6,4 km/h (2 Bft) 100,00 %
07.06.2023 10:18 16,7 C 16,7 C 12,8 C 80 % 1020,5 hPa 0,0 l/m 0 min 0 min 162 W/m 12,9 km/h (3 Bft) 97,92 %
07.06.2023 10:20 16,7 C 16,7 C 12,8 C 81 % 1020,6 hPa 0,0 l/m 0 min 0 min 156 W/m 9,7 km/h (2 Bft) 100,00 %
07.06.2023 10:22 16,7 C 16,7 C 12,8 C 81 % 1020,6 hPa 0,0 l/m 0 min 0 min 146 W/m 3,2 km/h (1 Bft) 100,00 %
07.06.2023 10:24 16,7 C 16,7 C 12,8 C 81 % 1020,6 hPa 0,0 l/m 0 min 0 min 131 W/m 6,4 km/h (2 Bft) 97,87 %
07.06.2023 10:26 16,7 C 16,7 C 12,8 C 81 % 1020,6 hPa 0,0 l/m 0 min 0 min 120 W/m 6,4 km/h (2 Bft) 100,00 %
07.06.2023 10:28 16,7 C 16,7 C 12,8 C 80 % 1020,7 hPa 0,0 l/m 0 min 0 min 112 W/m 6,4 km/h (2 Bft) 100,00 %
07.06.2023 10:30 16,7 C 16,7 C 12,8 C 81 % 1020,7 hPa 0,0 l/m 0 min 0 min 106 W/m 6,4 km/h (2 Bft) 97,87 %
07.06.2023 10:32 16,7 C 16,7 C 12,8 C 81 % 1020,7 hPa 0,0 l/m 0 min 0 min 103 W/m 9,7 km/h (2 Bft) 97,22 %
07.06.2023 10:34 16,7 C 16,7 C 12,8 C 80 % 1020,6 hPa 0,0 l/m 0 min 0 min 102 W/m 6,4 km/h (2 Bft) 100,00 %
07.06.2023 10:36 16,6 C 16,1 C 12,8 C 80 % 1020,6 hPa 0,0 l/m 0 min 0 min 104 W/m 6,4 km/h (2 Bft) 95,74 %
07.06.2023 10:38 16,6 C 16,1 C 12,8 C 81 % 1020,7 hPa 0,0 l/m 0 min 2 min 105 W/m 9,7 km/h (2 Bft) 100,00 %
07.06.2023 10:40 16,6 C 16,7 C 12,8 C 81 % 1020,7 hPa 0,0 l/m 0 min 2 min 103 W/m 6,4 km/h (2 Bft) 100,00 %
07.06.2023 10:42 16,6 C 16,7 C 12,2 C 82 % 1020,7 hPa 0,0 l/m 0 min 2 min 97 W/m 6,4 km/h (2 Bft) 95,65 %
07.06.2023 10:44 16,6 C 16,1 C 12,2 C 82 % 1020,7 hPa 0,0 l/m 0 min 0 min 87 W/m 6,4 km/h (2 Bft) 100,00 %
07.06.2023 10:46 16,6 C 16,1 C 12,2 C 83 % 1020,7 hPa 0,0 l/m 0 min 0 min 101 W/m 12,9 km/h (3 Bft) 100,00 %
07.06.2023 10:48 16,6 C 16,1 C 12,2 C 83 % 1020,7 hPa 0,0 l/m 0 min 2 min 103 W/m 3,2 km/h (1 Bft) 95,74 %
07.06.2023 10:50 16,6 C 16,1 C 12,2 C 84 % 1020,8 hPa 0,0 l/m 0 min 2 min 102 W/m 3,2 km/h (1 Bft) 100,00 %
07.06.2023 10:52 16,5 C 16,1 C 11,7 C 84 % 1020,7 hPa 0,0 l/m 0 min 2 min 98 W/m 6,4 km/h (2 Bft) 93,62 %
07.06.2023 10:54 16,4 C 16,1 C 11,7 C 84 % 1020,8 hPa 0,0 l/m 0 min 2 min 97 W/m 3,2 km/h (1 Bft) 95,74 %
07.06.2023 10:56 16,4 C 16,1 C 11,7 C 85 % 1020,8 hPa 0,0 l/m 0 min 2 min 95 W/m 9,7 km/h (2 Bft) 97,83 %
07.06.2023 10:58 16,3 C 15,6 C 11,7 C 85 % 1020,7 hPa 0,0 l/m 0 min 2 min 89 W/m 6,4 km/h (2 Bft) 97,87 %
07.06.2023 11:00 16,3 C 15,6 C 11,7 C 85 % 1020,8 hPa 0,0 l/m 0 min 0 min 86 W/m 9,7 km/h (2 Bft) 95,74 %
07.06.2023 11:02 16,3 C 15,6 C 11,1 C 85 % 1020,7 hPa 0,0 l/m 0 min 2 min 86 W/m 9,7 km/h (2 Bft) 95,74 %
07.06.2023 11:04 16,2 C 15,6 C 11,1 C 86 % 1020,7 hPa 0,0 l/m 0 min 2 min 87 W/m 6,4 km/h (2 Bft) 95,83 %
07.06.2023 11:06 16,2 C 15,6 C 11,1 C 86 % 1020,7 hPa 0,0 l/m 0 min 2 min 91 W/m 3,2 km/h (1 Bft) 93,10 %
07.06.2023 11:08 16,1 C 15,6 C 11,1 C 86 % 1020,7 hPa 0,2 l/m 0 min 2 min 97 W/m 6,4 km/h (2 Bft) 97,22 %
07.06.2023 11:10 16,1 C 15,6 C 11,1 C 86 % 1020,6 hPa 0,0 l/m 0 min 2 min 106 W/m 12,9 km/h (3 Bft) 95,65 %
07.06.2023 11:12 16,1 C 15,6 C 11,1 C 87 % 1020,6 hPa 0,0 l/m 0 min 2 min 113 W/m 9,7 km/h (2 Bft) 91,49 %
07.06.2023 11:14 16,0 C 15,6 C 11,1 C 87 % 1020,6 hPa 0,0 l/m 0 min 2 min 117 W/m 9,7 km/h (2 Bft) 93,62 %
07.06.2023 11:16 16,0 C 15,6 C 11,1 C 87 % 1020,6 hPa 0,0 l/m 0 min 2 min 119 W/m 9,7 km/h (2 Bft) 95,74 %
07.06.2023 11:18 15,9 C 15,6 C 11,1 C 87 % 1020,5 hPa 0,0 l/m 0 min 2 min 124 W/m 9,7 km/h (2 Bft) 93,62 %
07.06.2023 11:20 15,9 C 15,0 C 11,1 C 87 % 1020,5 hPa 0,0 l/m 0 min 2 min 134 W/m 12,9 km/h (3 Bft) 95,74 %
07.06.2023 11:22 15,8 C 15,0 C 11,1 C 88 % 1020,4 hPa 0,0 l/m 0 min 2 min 141 W/m 19,3 km/h (3 Bft) 93,62 %
07.06.2023 11:24 15,7 C 15,0 C 11,1 C 88 % 1020,4 hPa 0,0 l/m 0 min 2 min 150 W/m 19,3 km/h (3 Bft) 93,48 %
07.06.2023 11:26 15,7 C 15,0 C 11,1 C 88 % 1020,4 hPa 0,0 l/m 0 min 0 min 160 W/m 12,9 km/h (3 Bft) 95,74 %
07.06.2023 11:28 15,7 C 15,6 C 11,1 C 88 % 1020,4 hPa 0,0 l/m 0 min 0 min 159 W/m 9,7 km/h (2 Bft) 95,74 %
07.06.2023 11:30 15,7 C 15,6 C 11,1 C 88 % 1020,5 hPa 0,0 l/m 0 min 2 min 150 W/m 16,1 km/h (3 Bft) 93,62 %
07.06.2023 11:32 15,6 C 15,0 C 11,1 C 88 % 1020,5 hPa 0,0 l/m 0 min 2 min 137 W/m 12,9 km/h (3 Bft) 95,74 %
07.06.2023 11:34 15,6 C 15,0 C 11,1 C 89 % 1020,5 hPa 0,0 l/m 0 min 0 min 125 W/m 6,4 km/h (2 Bft) 97,87 %
07.06.2023 11:36 15,6 C 15,0 C 11,1 C 89 % 1020,6 hPa 0,0 l/m 0 min 0 min 115 W/m 6,4 km/h (2 Bft) 95,74 %
07.06.2023 11:38 15,6 C 15,0 C 11,1 C 89 % 1020,7 hPa 0,0 l/m 0 min 0 min 109 W/m 6,4 km/h (2 Bft) 97,87 %
07.06.2023 11:40 15,5 C 15,0 C 11,1 C 90 % 1020,6 hPa 0,0 l/m 0 min 0 min 104 W/m 3,2 km/h (1 Bft) 97,83 %
07.06.2023 11:42 15,5 C 15,0 C 11,1 C 90 % 1020,5 hPa 0,0 l/m 0 min 0 min 99 W/m 6,4 km/h (2 Bft) 100,00 %
07.06.2023 11:44 15,5 C 15,0 C 11,1 C 90 % 1020,7 hPa 0,0 l/m 0 min 0 min 96 W/m 3,2 km/h (1 Bft) 100,00 %
07.06.2023 11:46 15,5 C 15,0 C 11,1 C 90 % 1020,8 hPa 0,0 l/m 0 min 0 min 93 W/m 3,2 km/h (1 Bft) 97,87 %
07.06.2023 11:48 15,4 C 15,0 C 11,1 C 90 % 1020,6 hPa 0,0 l/m 0 min 0 min 93 W/m 9,7 km/h (2 Bft) 97,87 %
07.06.2023 11:50 15,4 C 15,0 C 11,1 C 90 % 1020,6 hPa 0,0 l/m 0 min 0 min 97 W/m 16,1 km/h (3 Bft) 93,62 %
07.06.2023 11:52 15,3 C 15,0 C 11,1 C 90 % 1020,6 hPa 0,0 l/m 0 min 0 min 102 W/m 3,2 km/h (1 Bft) 97,87 %
07.06.2023 11:54 15,3 C 15,0 C 11,1 C 90 % 1020,7 hPa 0,0 l/m 0 min 0 min 105 W/m 3,2 km/h (1 Bft) 97,83 %
07.06.2023 11:56 15,3 C 15,0 C 11,1 C 91 % 1020,7 hPa 0,0 l/m 0 min 0 min 104 W/m 9,7 km/h (2 Bft) 97,87 %
07.06.2023 11:58 15,3 C 15,0 C 11,1 C 91 % 1020,7 hPa 0,0 l/m 0 min 0 min 99 W/m 6,4 km/h (2 Bft) 97,87 %
07.06.2023 12:00 15,3 C 15,0 C 11,1 C 91 % 1020,7 hPa 0,0 l/m 0 min 0 min 98 W/m 3,2 km/h (1 Bft) 97,87 %
07.06.2023 12:02 15,3 C 15,0 C 11,1 C 91 % 1020,7 hPa 0,0 l/m 0 min 0 min 97 W/m 9,7 km/h (2 Bft) 97,87 %
07.06.2023 12:04 15,3 C 15,0 C 11,1 C 91 % 1020,7 hPa 0,0 l/m 0 min 0 min 98 W/m 3,2 km/h (1 Bft) 97,92 %
07.06.2023 12:07 15,3 C 15,0 C 11,7 C 91 % 1020,7 hPa 0,0 l/m 0 min 0 min 98 W/m 6,4 km/h (2 Bft) 97,92 %
07.06.2023 12:08 15,3 C 15,0 C 11,7 C 91 % 1020,7 hPa 0,0 l/m 0 min 0 min 98 W/m 6,4 km/h (2 Bft) 96,00 %
07.06.2023 12:12 15,3 C 15,0 C 11,7 C 91 % 1020,7 hPa 0,0 l/m 0 min 0 min 112 W/m 12,9 km/h (3 Bft) 96,55 %
07.06.2023 12:14 15,3 C 15,0 C 11,7 C 91 % 1020,7 hPa 0,0 l/m 0 min 0 min 126 W/m 6,4 km/h (2 Bft) 97,87 %
07.06.2023 12:16 15,3 C 15,0 C 11,7 C 91 % 1020,7 hPa 0,0 l/m 0 min 2 min 127 W/m 6,4 km/h (2 Bft) 97,87 %
07.06.2023 12:18 15,3 C 15,6 C 11,1 C 91 % 1020,7 hPa 0,0 l/m 0 min 2 min 122 W/m 6,4 km/h (2 Bft) 97,87 %
07.06.2023 12:20 15,3 C 15,6 C 11,1 C 92 % 1020,6 hPa 0,0 l/m 0 min 2 min 129 W/m 9,7 km/h (2 Bft) 97,87 %
07.06.2023 12:22 15,3 C 15,6 C 11,1 C 92 % 1020,7 hPa 0,0 l/m 0 min 0 min 147 W/m 6,4 km/h (2 Bft) 97,83 %
07.06.2023 12:24 15,4 C 15,6 C 11,1 C 92 % 1020,7 hPa 0,0 l/m 0 min 2 min 168 W/m 6,4 km/h (2 Bft) 95,74 %
07.06.2023 12:26 15,4 C 15,6 C 11,1 C 92 % 1020,6 hPa 0,0 l/m 0 min 2 min 171 W/m 6,4 km/h (2 Bft) 97,87 %
07.06.2023 12:28 15,4 C 15,6 C 11,1 C 92 % 1020,6 hPa 0,0 l/m 0 min 0 min 160 W/m 3,2 km/h (1 Bft) 97,87 %
07.06.2023 12:30 15,5 C 15,6 C 11,1 C 92 % 1020,6 hPa 0,0 l/m 0 min 0 min 160 W/m 3,2 km/h (1 Bft) 97,87 %
07.06.2023 12:32 15,5 C 15,6 C 11,7 C 93 % 1020,7 hPa 0,0 l/m 0 min 2 min 170 W/m 12,9 km/h (3 Bft) 97,87 %
07.06.2023 12:34 15,4 C 15,6 C 11,7 C 92 % 1020,6 hPa 0,0 l/m 0 min 0 min 168 W/m 19,3 km/h (3 Bft) 97,87 %
07.06.2023 12:36 15,4 C 15,6 C 11,7 C 92 % 1020,6 hPa 0,0 l/m 0 min 0 min 163 W/m 12,9 km/h (3 Bft) 97,83 %
07.06.2023 12:38 15,4 C 15,6 C 11,1 C 92 % 1020,6 hPa 0,0 l/m 0 min 0 min 165 W/m 12,9 km/h (3 Bft) 97,87 %
07.06.2023 12:40 15,3 C 15,6 C 11,7 C 92 % 1020,6 hPa 0,0 l/m 0 min 0 min 163 W/m 6,4 km/h (2 Bft) 100,00 %
07.06.2023 12:42 15,2 C 15,0 C 11,7 C 92 % 1020,5 hPa 0,0 l/m 0 min 0 min 164 W/m 16,1 km/h (3 Bft) 100,00 %
07.06.2023 12:44 15,2 C 15,6 C 11,7 C 92 % 1020,5 hPa 0,0 l/m 0 min 0 min 163 W/m 6,4 km/h (2 Bft) 97,87 %
07.06.2023 12:46 15,2 C 15,6 C 11,7 C 92 % 1020,5 hPa 0,0 l/m 0 min 0 min 167 W/m 3,2 km/h (1 Bft) 100,00 %
07.06.2023 12:48 15,2 C 15,6 C 11,7 C 92 % 1020,6 hPa 0,0 l/m 0 min 0 min 170 W/m 9,7 km/h (2 Bft) 97,87 %
07.06.2023 12:50 15,3 C 15,6 C 11,7 C 92 % 1020,6 hPa 0,0 l/m 0 min 0 min 167 W/m 3,2 km/h (1 Bft) 95,65 %
07.06.2023 12:52 15,3 C 15,6 C 11,7 C 92 % 1020,6 hPa 0,0 l/m 0 min 0 min 162 W/m 9,7 km/h (2 Bft) 100,00 %
07.06.2023 12:54 15,4 C 15,6 C 11,7 C 92 % 1020,6 hPa 0,0 l/m 0 min 0 min 159 W/m 3,2 km/h (1 Bft) 97,87 %
07.06.2023 12:56 15,4 C 15,6 C 11,7 C 92 % 1020,6 hPa 0,0 l/m 0 min 0 min 161 W/m 9,7 km/h (2 Bft) 97,87 %
07.06.2023 12:58 15,4 C 15,6 C 11,7 C 92 % 1020,6 hPa 0,0 l/m 0 min 0 min 169 W/m 6,4 km/h (2 Bft) 95,74 %
07.06.2023 13:00 15,4 C 15,6 C 11,7 C 92 % 1020,6 hPa 0,0 l/m 0 min 0 min 170 W/m 6,4 km/h (2 Bft) 97,87 %
07.06.2023 13:02 15,5 C 16,1 C 11,7 C 92 % 1020,6 hPa 0,0 l/m 0 min 0 min 181 W/m 9,7 km/h (2 Bft) 95,74 %
07.06.2023 13:04 15,6 C 16,1 C 11,7 C 92 % 1020,6 hPa 0,0 l/m 0 min 0 min 195 W/m 12,9 km/h (3 Bft) 95,74 %
07.06.2023 13:06 15,5 C 15,6 C 11,7 C 92 % 1020,5 hPa 0,0 l/m 0 min 0 min 198 W/m 12,9 km/h (3 Bft) 98,31 %
07.06.2023 13:08 15,6 C 15,6 C 11,7 C 92 % 1020,5 hPa 0,0 l/m 0 min 0 min 189 W/m 9,7 km/h (2 Bft) 97,14 %
07.06.2023 13:10 15,6 C 16,1 C 11,7 C 92 % 1020,5 hPa 0,0 l/m 0 min 0 min 175 W/m 9,7 km/h (2 Bft) 97,87 %
07.06.2023 13:12 15,6 C 16,1 C 11,7 C 92 % 1020,5 hPa 0,0 l/m 0 min 0 min 167 W/m 3,2 km/h (1 Bft) 20,00 %
07.06.2023 13:14 15,6 C 15,6 C 11,7 C 92 % 1020,4 hPa 0,0 l/m 0 min 0 min 158 W/m 6,4 km/h (2 Bft) 100,00 %
07.06.2023 13:16 15,6 C 15,6 C 11,7 C 91 % 1020,5 hPa 0,0 l/m 0 min 0 min 146 W/m 3,2 km/h (1 Bft) 97,83 %
07.06.2023 13:18 15,6 C 15,6 C 11,7 C 91 % 1020,5 hPa 0,0 l/m 0 min 0 min 147 W/m 6,4 km/h (2 Bft) 97,87 %
07.06.2023 13:20 15,6 C 15,6 C 11,7 C 92 % 1020,5 hPa 0,0 l/m 0 min 0 min 149 W/m 3,2 km/h (1 Bft) 95,74 %
07.06.2023 13:22 15,7 C 15,6 C 12,2 C 92 % 1020,5 hPa 0,0 l/m 0 min 0 min 151 W/m 16,1 km/h (3 Bft) 95,74 %
07.06.2023 13:24 15,7 C 16,1 C 12,2 C 92 % 1020,5 hPa 0,0 l/m 0 min 0 min 149 W/m 3,2 km/h (1 Bft) 100,00 %
07.06.2023 13:26 15,7 C 16,1 C 12,2 C 92 % 1020,5 hPa 0,0 l/m 0 min 0 min 146 W/m 9,7 km/h (2 Bft) 97,87 %
07.06.2023 13:28 15,8 C 16,1 C 12,2 C 92 % 1020,4 hPa 0,0 l/m 0 min 0 min 146 W/m 6,4 km/h (2 Bft) 97,87 %
07.06.2023 13:30 15,8 C 16,1 C 12,2 C 92 % 1020,5 hPa 0,0 l/m 0 min 0 min 150 W/m 6,4 km/h (2 Bft) 100,00 %
07.06.2023 13:32 15,9 C 16,1 C 12,2 C 92 % 1020,4 hPa 0,0 l/m 0 min 0 min 159 W/m 12,9 km/h (3 Bft) 100,00 %
07.06.2023 13:34 15,8 C 16,1 C 12,2 C 91 % 1020,4 hPa 0,0 l/m 0 min 0 min 172 W/m 12,9 km/h (3 Bft) 100,00 %
07.06.2023 13:36 15,9 C 16,1 C 12,2 C 91 % 1020,4 hPa 0,0 l/m 0 min 0 min 184 W/m 9,7 km/h (2 Bft) 95,74 %
07.06.2023 13:38 15,9 C 16,7 C 12,8 C 91 % 1020,4 hPa 0,0 l/m 0 min 0 min 198 W/m 9,7 km/h (2 Bft) 100,00 %
07.06.2023 13:40 16,0 C 16,7 C 12,8 C 91 % 1020,4 hPa 0,0 l/m 0 min 0 min 213 W/m 9,7 km/h (2 Bft) 100,00 %
07.06.2023 13:42 16,0 C 16,7 C 12,8 C 91 % 1020,3 hPa 0,0 l/m 0 min 0 min 222 W/m 6,4 km/h (2 Bft) 95,65 %
07.06.2023 13:44 16,1 C 16,7 C 12,8 C 91 % 1020,3 hPa 0,0 l/m 0 min 0 min 242 W/m 9,7 km/h (2 Bft) 97,92 %
07.06.2023 13:46 16,1 C 16,7 C 12,8 C 91 % 1020,3 hPa 0,0 l/m 0 min 0 min 273 W/m 9,7 km/h (2 Bft) 97,14 %
07.06.2023 13:48 16,2 C 17,2 C 13,3 C 91 % 1020,3 hPa 0,0 l/m 0 min 0 min 326 W/m 6,4 km/h (2 Bft) 93,62 %
07.06.2023 13:50 16,3 C 17,8 C 13,3 C 91 % 1020,2 hPa 0,0 l/m 0 min 0 min 373 W/m 9,7 km/h (2 Bft) 97,83 %
07.06.2023 13:52 16,4 C 17,8 C 13,3 C 91 % 1020,1 hPa 0,0 l/m 0 min 0 min 384 W/m 12,9 km/h (3 Bft) 97,87 %
07.06.2023 13:54 16,5 C 17,8 C 13,9 C 90 % 1020,1 hPa 0,0 l/m 0 min 0 min 394 W/m 9,7 km/h (2 Bft) 97,87 %
07.06.2023 13:56 16,6 C 18,3 C 13,9 C 90 % 1020,1 hPa 0,0 l/m 0 min 0 min 414 W/m 9,7 km/h (2 Bft) 97,87 %
07.06.2023 13:58 16,7 C 18,3 C 13,9 C 89 % 1020,1 hPa 0,0 l/m 0 min 0 min 383 W/m 12,9 km/h (3 Bft) 97,87 %
07.06.2023 14:00 16,8 C 18,9 C 13,9 C 89 % 1020,0 hPa 0,0 l/m 0 min 0 min 385 W/m 9,7 km/h (2 Bft) 97,87 %
07.06.2023 14:02 17,0 C 18,9 C 14,4 C 89 % 1020,0 hPa 0,0 l/m 0 min 0 min 399 W/m 12,9 km/h (3 Bft) 95,74 %
07.06.2023 14:04 17,1 C 18,9 C 14,4 C 88 % 1020,0 hPa 0,0 l/m 0 min 0 min 415 W/m 22,5 km/h (4 Bft) 95,83 %
07.06.2023 14:06 17,2 C 18,9 C 13,9 C 88 % 1020,0 hPa 0,0 l/m 0 min 0 min 420 W/m 19,3 km/h (3 Bft) 96,61 %
07.06.2023 14:08 17,3 C 18,9 C 14,4 C 87 % 1020,0 hPa 0,0 l/m 0 min 0 min 403 W/m 6,4 km/h (2 Bft) 100,00 %
07.06.2023 14:10 17,4 C 19,4 C 14,4 C 87 % 1020,0 hPa 0,0 l/m 0 min 0 min 408 W/m 9,7 km/h (2 Bft) 95,74 %
07.06.2023 14:12 17,5 C 19,4 C 14,4 C 86 % 1019,9 hPa 0,2 l/m 0 min 0 min 422 W/m 22,5 km/h (4 Bft) 97,87 %
07.06.2023 14:14 17,6 C 19,4 C 14,4 C 86 % 1019,9 hPa 0,0 l/m 0 min 0 min 429 W/m 12,9 km/h (3 Bft) 97,87 %
07.06.2023 14:16 17,7 C 19,4 C 14,4 C 86 % 1019,9 hPa 0,0 l/m 0 min 0 min 429 W/m 6,4 km/h (2 Bft) 97,83 %
07.06.2023 14:18 17,8 C 19,4 C 15,0 C 86 % 1019,9 hPa 0,0 l/m 0 min 0 min 434 W/m 6,4 km/h (2 Bft) 97,87 %
07.06.2023 14:20 18,0 C 20,0 C 15,0 C 85 % 1019,9 hPa 0,0 l/m 0 min 0 min 436 W/m 12,9 km/h (3 Bft) 97,87 %
07.06.2023 14:22 18,2 C 21,1 C 15,0 C 85 % 1019,8 hPa 0,0 l/m 2 min 0 min 520 W/m 9,7 km/h (2 Bft) 97,87 %
07.06.2023 14:24 18,3 C 21,7 C 15,6 C 85 % 1019,8 hPa 0,0 l/m 2 min 0 min 615 W/m 9,7 km/h (2 Bft) 95,74 %
07.06.2023 14:26 18,6 C 22,8 C 16,1 C 85 % 1019,8 hPa 0,0 l/m 2 min 0 min 534 W/m 6,4 km/h (2 Bft) 97,87 %
07.06.2023 14:28 18,8 C 23,3 C 16,1 C 84 % 1019,8 hPa 0,0 l/m 2 min 0 min 713 W/m 12,9 km/h (3 Bft) 97,87 %
07.06.2023 14:30 19,1 C 24,4 C 16,1 C 84 % 1019,8 hPa 0,0 l/m 2 min 0 min 789 W/m 19,3 km/h (3 Bft) 97,83 %
07.06.2023 14:32 19,3 C 23,9 C 16,7 C 83 % 1019,7 hPa 0,0 l/m 2 min 0 min 1121 W/m 12,9 km/h (3 Bft) 97,87 %
07.06.2023 14:34 19,4 C 23,3 C 16,1 C 81 % 1019,7 hPa 0,0 l/m 2 min 0 min 615 W/m 19,3 km/h (3 Bft) 97,87 %
07.06.2023 14:36 19,6 C 23,3 C 16,1 C 81 % 1019,7 hPa 0,0 l/m 2 min 0 min 600 W/m 12,9 km/h (3 Bft) 95,74 %
07.06.2023 14:38 19,7 C 24,4 C 16,1 C 80 % 1019,7 hPa 0,0 l/m 2 min 0 min 735 W/m 19,3 km/h (3 Bft) 95,74 %
07.06.2023 14:40 19,8 C 25,6 C 16,7 C 80 % 1019,7 hPa 0,0 l/m 2 min 0 min 849 W/m 12,9 km/h (3 Bft) 95,74 %
07.06.2023 14:42 20,1 C 25,6 C 16,7 C 79 % 1019,7 hPa 0,0 l/m 2 min 0 min 1152 W/m 12,9 km/h (3 Bft) 97,87 %
07.06.2023 14:44 20,2 C 26,1 C 16,7 C 79 % 1019,7 hPa 0,0 l/m 2 min 0 min 905 W/m 12,9 km/h (3 Bft) 95,74 %
07.06.2023 14:46 20,4 C 26,7 C 16,7 C 79 % 1019,7 hPa 0,0 l/m 2 min 0 min 974 W/m 12,9 km/h (3 Bft) 95,65 %
07.06.2023 14:48 20,6 C 25,6 C 17,2 C 78 % 1019,7 hPa 0,0 l/m 2 min 0 min 1065 W/m 16,1 km/h (3 Bft) 100,00 %
07.06.2023 14:50 20,7 C 23,9 C 17,2 C 77 % 1019,7 hPa 0,0 l/m 2 min 0 min 538 W/m 9,7 km/h (2 Bft) 93,62 %
07.06.2023 14:52 20,7 C 22,8 C 16,7 C 76 % 1019,7 hPa 0,0 l/m 0 min 0 min 433 W/m 9,7 km/h (2 Bft) 95,74 %
07.06.2023 14:54 20,6 C 22,8 C 16,7 C 77 % 1019,6 hPa 0,0 l/m 0 min 0 min 393 W/m 22,5 km/h (4 Bft) 93,62 %
07.06.2023 14:56 20,6 C 22,2 C 16,7 C 77 % 1019,7 hPa 0,0 l/m 0 min 0 min 368 W/m 9,7 km/h (2 Bft) 97,87 %
07.06.2023 14:58 20,4 C 21,1 C 16,7 C 76 % 1019,7 hPa 0,0 l/m 0 min 0 min 357 W/m 9,7 km/h (2 Bft) 93,62 %
07.06.2023 15:00 20,3 C 21,1 C 16,7 C 77 % 1019,7 hPa 0,0 l/m 0 min 0 min 383 W/m 16,1 km/h (3 Bft) 95,65 %
07.06.2023 15:02 20,2 C 21,1 C 16,1 C 77 % 1019,6 hPa 0,0 l/m 2 min 0 min 458 W/m 12,9 km/h (3 Bft) 91,49 %
07.06.2023 15:04 20,1 C 21,1 C 16,7 C 78 % 1019,6 hPa 0,0 l/m 2 min 0 min 467 W/m 9,7 km/h (2 Bft) 95,83 %
07.06.2023 15:06 20,1 C 21,1 C 16,7 C 78 % 1019,6 hPa 0,0 l/m 2 min 0 min 439 W/m 6,4 km/h (2 Bft) 96,61 %
07.06.2023 15:08 20,1 C 21,7 C 16,7 C 78 % 1019,6 hPa 0,0 l/m 2 min 0 min 441 W/m 3,2 km/h (1 Bft) 94,29 %
07.06.2023 15:10 20,2 C 22,2 C 16,7 C 78 % 1019,5 hPa 0,0 l/m 2 min 0 min 442 W/m 9,7 km/h (2 Bft) 95,74 %
07.06.2023 15:12 20,2 C 21,7 C 16,7 C 78 % 1019,5 hPa 0,0 l/m 0 min 0 min 394 W/m 12,9 km/h (3 Bft) 93,48 %
07.06.2023 15:14 20,2 C 21,7 C 16,7 C 78 % 1019,5 hPa 0,0 l/m 0 min 0 min 338 W/m 6,4 km/h (2 Bft) 95,74 %
07.06.2023 15:16 20,2 C 21,1 C 16,7 C 77 % 1019,5 hPa 0,0 l/m 0 min 0 min 334 W/m 16,1 km/h (3 Bft) 95,65 %
07.06.2023 15:18 20,2 C 22,8 C 16,7 C 77 % 1019,5 hPa 0,0 l/m 2 min 0 min 425 W/m 16,1 km/h (3 Bft) 95,74 %
07.06.2023 15:20 20,3 C 23,9 C 16,7 C 78 % 1019,5 hPa 0,0 l/m 2 min 0 min 565 W/m 16,1 km/h (3 Bft) 97,87 %
07.06.2023 15:22 20,6 C 25,6 C 16,7 C 77 % 1019,4 hPa 0,0 l/m 2 min 0 min 915 W/m 12,9 km/h (3 Bft) 97,87 %
07.06.2023 15:24 20,7 C 26,1 C 16,7 C 76 % 1019,4 hPa 0,0 l/m 2 min 0 min 898 W/m 19,3 km/h (3 Bft) 97,87 %
07.06.2023 15:26 20,9 C 25,6 C 17,2 C 76 % 1019,4 hPa 0,0 l/m 2 min 0 min 913 W/m 16,1 km/h (3 Bft) 97,83 %
07.06.2023 15:28 21,1 C 25,0 C 17,2 C 75 % 1019,4 hPa 0,0 l/m 2 min 0 min 911 W/m 19,3 km/h (3 Bft) 100,00 %
07.06.2023 15:30 21,2 C 26,7 C 17,8 C 75 % 1019,4 hPa 0,0 l/m 2 min 0 min 943 W/m 6,4 km/h (2 Bft) 100,00 %
07.06.2023 15:32 21,4 C 25,6 C 17,8 C 74 % 1019,4 hPa 0,0 l/m 2 min 0 min 962 W/m 12,9 km/h (3 Bft) 100,00 %
07.06.2023 15:34 21,6 C 25,6 C 17,8 C 74 % 1019,4 hPa 0,0 l/m 2 min 0 min 447 W/m 9,7 km/h (2 Bft) 100,00 %
07.06.2023 15:36 21,7 C 24,4 C 17,8 C 73 % 1019,3 hPa 0,0 l/m 0 min 0 min 359 W/m 16,1 km/h (3 Bft) 100,00 %
07.06.2023 15:38 21,7 C 25,0 C 17,8 C 73 % 1019,3 hPa 0,0 l/m 0 min 0 min 359 W/m 16,1 km/h (3 Bft) 100,00 %
07.06.2023 15:40 21,8 C 25,6 C 17,8 C 72 % 1019,3 hPa 0,0 l/m 2 min 0 min 907 W/m 16,1 km/h (3 Bft) 100,00 %
07.06.2023 15:42 21,9 C 25,0 C 17,8 C 72 % 1019,3 hPa 0,0 l/m 2 min 0 min 1046 W/m 19,3 km/h (3 Bft) 100,00 %
07.06.2023 15:44 22,0 C 24,4 C 18,3 C 72 % 1019,3 hPa 0,0 l/m 2 min 0 min 834 W/m 6,4 km/h (2 Bft) 100,00 %
07.06.2023 15:46 21,9 C 23,3 C 17,8 C 72 % 1019,3 hPa 0,0 l/m 0 min 0 min 299 W/m 16,1 km/h (3 Bft) 100,00 %
07.06.2023 15:48 21,9 C 22,2 C 17,8 C 72 % 1019,3 hPa 0,0 l/m 0 min 0 min 257 W/m 9,7 km/h (2 Bft) 100,00 %
07.06.2023 15:50 21,8 C 22,2 C 17,8 C 72 % 1019,3 hPa 0,0 l/m 0 min 0 min 274 W/m 6,4 km/h (2 Bft) 100,00 %
07.06.2023 15:52 21,8 C 22,2 C 17,8 C 72 % 1019,3 hPa 0,0 l/m 0 min 0 min 282 W/m 12,9 km/h (3 Bft) 100,00 %
07.06.2023 15:54 21,8 C 22,8 C 17,8 C 73 % 1019,2 hPa 0,0 l/m 0 min 0 min 352 W/m 12,9 km/h (3 Bft) 100,00 %
07.06.2023 15:56 21,8 C 22,8 C 17,8 C 72 % 1019,2 hPa 0,0 l/m 0 min 0 min 389 W/m 6,4 km/h (2 Bft) 100,00 %
07.06.2023 15:58 21,8 C 22,8 C 17,8 C 73 % 1019,2 hPa 0,0 l/m 0 min 0 min 279 W/m 12,9 km/h (3 Bft) 100,00 %
07.06.2023 16:00 21,7 C 22,2 C 17,8 C 72 % 1019,1 hPa 0,0 l/m 0 min 0 min 312 W/m 12,9 km/h (3 Bft) 100,00 %
07.06.2023 16:02 21,6 C 23,3 C 17,8 C 72 % 1019,1 hPa 0,0 l/m 0 min 0 min 378 W/m 19,3 km/h (3 Bft) 97,87 %
07.06.2023 16:04 21,6 C 22,8 C 17,8 C 72 % 1019,1 hPa 0,0 l/m 0 min 0 min 375 W/m 12,9 km/h (3 Bft) 100,00 %
07.06.2023 16:06 21,6 C 22,8 C 17,8 C 72 % 1019,0 hPa 0,0 l/m 0 min 0 min 321 W/m 6,4 km/h (2 Bft) 100,00 %
07.06.2023 16:08 21,7 C 22,8 C 17,8 C 73 % 1019,0 hPa 0,0 l/m 0 min 0 min 322 W/m 16,1 km/h (3 Bft) 100,00 %
07.06.2023 16:10 21,6 C 22,2 C 17,8 C 72 % 1019,0 hPa 0,0 l/m 0 min 0 min 348 W/m 16,1 km/h (3 Bft) 97,83 %
07.06.2023 16:12 21,6 C 22,8 C 17,8 C 73 % 1018,9 hPa 0,0 l/m 2 min 0 min 390 W/m 12,9 km/h (3 Bft) 100,00 %
07.06.2023 16:14 21,6 C 22,8 C 17,8 C 73 % 1018,9 hPa 0,0 l/m 0 min 0 min 362 W/m 9,7 km/h (2 Bft) 100,00 %
07.06.2023 16:16 21,6 C 22,2 C 17,8 C 72 % 1018,8 hPa 0,0 l/m 0 min 0 min 373 W/m 16,1 km/h (3 Bft) 100,00 %
07.06.2023 16:18 21,6 C 22,2 C 17,8 C 73 % 1018,8 hPa 0,0 l/m 0 min 0 min 368 W/m 19,3 km/h (3 Bft) 100,00 %
07.06.2023 16:20 21,6 C 22,2 C 17,8 C 72 % 1018,8 hPa 0,0 l/m 2 min 0 min 425 W/m 6,4 km/h (2 Bft) 100,00 %
07.06.2023 16:22 21,6 C 22,8 C 17,8 C 73 % 1018,8 hPa 0,0 l/m 2 min 0 min 400 W/m 16,1 km/h (3 Bft) 100,00 %
07.06.2023 16:24 21,6 C 22,8 C 17,8 C 73 % 1018,7 hPa 0,0 l/m 2 min 0 min 400 W/m 12,9 km/h (3 Bft) 100,00 %
07.06.2023 16:26 21,6 C 22,8 C 17,8 C 73 % 1018,7 hPa 0,0 l/m 2 min 0 min 389 W/m 19,3 km/h (3 Bft) 100,00 %
07.06.2023 16:28 21,7 C 22,8 C 17,8 C 73 % 1018,8 hPa 0,0 l/m 0 min 0 min 350 W/m 16,1 km/h (3 Bft) 100,00 %
07.06.2023 16:30 21,7 C 22,8 C 17,8 C 73 % 1018,8 hPa 0,0 l/m 2 min 0 min 373 W/m 19,3 km/h (3 Bft) 100,00 %
07.06.2023 16:32 21,7 C 22,8 C 17,8 C 73 % 1018,8 hPa 0,0 l/m 2 min 0 min 427 W/m 16,1 km/h (3 Bft) 100,00 %
07.06.2023 16:34 21,7 C 23,3 C 18,3 C 72 % 1018,8 hPa 0,0 l/m 2 min 0 min 456 W/m 16,1 km/h (3 Bft) 100,00 %
07.06.2023 16:36 21,8 C 22,8 C 18,3 C 73 % 1018,8 hPa 0,0 l/m 2 min 0 min 413 W/m 16,1 km/h (3 Bft) 100,00 %
07.06.2023 16:38 21,8 C 22,8 C 17,8 C 72 % 1018,8 hPa 0,0 l/m 0 min 0 min 231 W/m 6,4 km/h (2 Bft) 100,00 %
07.06.2023 16:40 21,8 C 22,2 C 17,8 C 72 % 1018,8 hPa 0,0 l/m 0 min 0 min 268 W/m 9,7 km/h (2 Bft) 100,00 %
07.06.2023 16:42 21,8 C 22,8 C 17,8 C 72 % 1018,8 hPa 0,0 l/m 2 min 0 min 369 W/m 12,9 km/h (3 Bft) 97,87 %
07.06.2023 16:44 21,8 C 22,8 C 17,8 C 72 % 1018,9 hPa 0,0 l/m 0 min 0 min 356 W/m 12,9 km/h (3 Bft) 97,87 %
07.06.2023 16:46 21,8 C 22,2 C 17,8 C 72 % 1018,8 hPa 0,0 l/m 0 min 0 min 351 W/m 16,1 km/h (3 Bft) 100,00 %
07.06.2023 16:48 21,8 C 22,2 C 17,8 C 72 % 1018,8 hPa 0,0 l/m 0 min 0 min 265 W/m 12,9 km/h (3 Bft) 100,00 %
07.06.2023 16:50 21,8 C 22,2 C 18,3 C 73 % 1018,8 hPa 0,0 l/m 0 min 0 min 250 W/m 6,4 km/h (2 Bft) 97,87 %
07.06.2023 16:52 21,9 C 22,2 C 18,3 C 72 % 1018,8 hPa 0,0 l/m 0 min 0 min 265 W/m 12,9 km/h (3 Bft) 97,87 %
07.06.2023 16:54 21,9 C 22,2 C 17,8 C 72 % 1018,8 hPa 0,0 l/m 0 min 0 min 291 W/m 9,7 km/h (2 Bft) 100,00 %
07.06.2023 16:56 21,9 C 22,8 C 18,3 C 73 % 1018,8 hPa 0,0 l/m 2 min 0 min 349 W/m 12,9 km/h (3 Bft) 97,87 %
07.06.2023 16:58 21,9 C 23,3 C 18,3 C 73 % 1018,7 hPa 0,0 l/m 2 min 0 min 350 W/m 12,9 km/h (3 Bft) 97,87 %
07.06.2023 17:00 22,0 C 23,3 C 18,3 C 73 % 1018,7 hPa 0,0 l/m 0 min 0 min 260 W/m 9,7 km/h (2 Bft) 95,74 %
07.06.2023 17:02 22,0 C 23,3 C 18,3 C 73 % 1018,6 hPa 0,0 l/m 0 min 0 min 315 W/m 6,4 km/h (2 Bft) 95,74 %
07.06.2023 17:04 22,1 C 23,9 C 18,3 C 73 % 1018,6 hPa 0,0 l/m 2 min 0 min 432 W/m 12,9 km/h (3 Bft) 93,88 %
07.06.2023 17:06 22,1 C 23,9 C 18,3 C 73 % 1018,5 hPa 0,0 l/m 2 min 0 min 434 W/m 12,9 km/h (3 Bft) 93,10 %
07.06.2023 17:08 22,1 C 23,3 C 18,3 C 73 % 1018,5 hPa 0,0 l/m 2 min 0 min 368 W/m 16,1 km/h (3 Bft) 91,43 %
07.06.2023 17:10 22,1 C 23,9 C 18,3 C 72 % 1018,5 hPa 0,0 l/m 2 min 0 min 462 W/m 19,3 km/h (3 Bft) 91,49 %
07.06.2023 17:12 22,1 C 24,4 C 18,3 C 72 % 1018,4 hPa 0,0 l/m 2 min 0 min 530 W/m 12,9 km/h (3 Bft) 95,74 %
07.06.2023 17:14 22,2 C 25,6 C 18,9 C 72 % 1018,4 hPa 0,0 l/m 2 min 0 min 614 W/m 9,7 km/h (2 Bft) 93,62 %
07.06.2023 17:16 22,3 C 26,1 C 18,9 C 72 % 1018,4 hPa 0,0 l/m 2 min 0 min 637 W/m 19,3 km/h (3 Bft) 93,62 %
07.06.2023 17:18 22,4 C 26,1 C 18,9 C 71 % 1018,4 hPa 0,0 l/m 2 min 0 min 623 W/m 16,1 km/h (3 Bft) 91,49 %
07.06.2023 17:20 22,6 C 26,7 C 19,4 C 71 % 1018,4 hPa 0,0 l/m 2 min 0 min 641 W/m 16,1 km/h (3 Bft) 93,48 %
07.06.2023 17:22 22,7 C 26,7 C 19,4 C 71 % 1018,4 hPa 0,0 l/m 2 min 0 min 641 W/m 16,1 km/h (3 Bft) 93,62 %
07.06.2023 17:24 22,9 C 27,2 C 20,0 C 71 % 1018,3 hPa 0,0 l/m 2 min 0 min 542 W/m 9,7 km/h (2 Bft) 89,36 %
07.06.2023 17:26 23,1 C 26,7 C 20,0 C 71 % 1018,3 hPa 0,0 l/m 2 min 0 min 387 W/m 9,7 km/h (2 Bft) 93,62 %
07.06.2023 17:28 23,1 C 25,0 C 19,4 C 70 % 1018,4 hPa 0,0 l/m 0 min 0 min 298 W/m 12,9 km/h (3 Bft) 93,62 %
07.06.2023 17:30 23,1 C 24,4 C 18,9 C 70 % 1018,3 hPa 0,0 l/m 0 min 0 min 196 W/m 9,7 km/h (2 Bft) 93,62 %
07.06.2023 17:32 22,9 C 23,9 C 18,3 C 70 % 1018,4 hPa 0,0 l/m 0 min 0 min 247 W/m 12,9 km/h (3 Bft) 95,74 %
07.06.2023 17:34 22,9 C 23,9 C 18,3 C 70 % 1018,3 hPa 0,0 l/m 0 min 0 min 245 W/m 6,4 km/h (2 Bft) 95,65 %
07.06.2023 17:36 22,8 C 24,4 C 18,9 C 71 % 1018,3 hPa 0,0 l/m 2 min 0 min 315 W/m 9,7 km/h (2 Bft) 93,62 %
07.06.2023 17:38 22,8 C 25,0 C 18,9 C 71 % 1018,2 hPa 0,0 l/m 2 min 0 min 392 W/m 6,4 km/h (2 Bft) 95,74 %
07.06.2023 17:40 22,8 C 25,0 C 18,9 C 71 % 1018,2 hPa 0,0 l/m 2 min 0 min 460 W/m 9,7 km/h (2 Bft) 95,74 %
07.06.2023 17:42 22,8 C 25,6 C 18,9 C 71 % 1018,2 hPa 0,0 l/m 2 min 0 min 480 W/m 6,4 km/h (2 Bft) 95,74 %
07.06.2023 17:44 22,8 C 26,1 C 19,4 C 71 % 1018,2 hPa 0,0 l/m 2 min 0 min 500 W/m 12,9 km/h (3 Bft) 95,74 %
07.06.2023 17:46 22,9 C 25,6 C 19,4 C 72 % 1018,2 hPa 0,0 l/m 2 min 0 min 391 W/m 9,7 km/h (2 Bft) 95,74 %
07.06.2023 17:48 22,9 C 25,0 C 18,9 C 71 % 1018,2 hPa 0,0 l/m 0 min 0 min 237 W/m 12,9 km/h (3 Bft) 95,74 %
07.06.2023 17:50 22,9 C 24,4 C 18,9 C 71 % 1018,2 hPa 0,0 l/m 0 min 0 min 208 W/m 6,4 km/h (2 Bft) 97,83 %
07.06.2023 17:52 22,9 C 25,6 C 18,9 C 71 % 1018,2 hPa 0,0 l/m 2 min 0 min 302 W/m 12,9 km/h (3 Bft) 97,87 %
07.06.2023 17:54 23,0 C 26,1 C 19,4 C 72 % 1018,1 hPa 0,0 l/m 2 min 0 min 576 W/m 9,7 km/h (2 Bft) 95,74 %
07.06.2023 17:56 23,1 C 27,2 C 20,0 C 72 % 1018,0 hPa 0,0 l/m 2 min 0 min 550 W/m 16,1 km/h (3 Bft) 100,00 %
07.06.2023 17:58 23,2 C 27,8 C 20,6 C 72 % 1018,0 hPa 0,0 l/m 2 min 0 min 526 W/m 12,9 km/h (3 Bft) 100,00 %
07.06.2023 18:00 23,3 C 26,7 C 20,0 C 71 % 1018,0 hPa 0,0 l/m 2 min 0 min 520 W/m 6,4 km/h (2 Bft) 100,00 %
07.06.2023 18:02 23,4 C 26,1 C 20,0 C 70 % 1018,0 hPa 0,0 l/m 2 min 0 min 364 W/m 3,2 km/h (1 Bft) 85,11 %
07.06.2023 18:04 23,4 C 25,0 C 19,4 C 69 % 1018,0 hPa 0,0 l/m 2 min 0 min 306 W/m 9,7 km/h (2 Bft) 64,10 %
07.06.2023 18:08 23,4 C 23,9 C 18,9 C 69 % 1018,0 hPa 0,0 l/m 0 min 0 min 177 W/m 9,7 km/h (2 Bft) 100,00 %
07.06.2023 18:12 23,3 C 25,6 C 19,4 C 69 % 1018,0 hPa 0,0 l/m 4 min 0 min 413 W/m 6,4 km/h (2 Bft) 97,22 %
07.06.2023 18:14 23,3 C 26,1 C 19,4 C 69 % 1018,0 hPa 0,0 l/m 2 min 0 min 415 W/m 9,7 km/h (2 Bft) 100,00 %
07.06.2023 18:16 23,3 C 26,7 C 19,4 C 70 % 1017,9 hPa 0,0 l/m 2 min 0 min 440 W/m 6,4 km/h (2 Bft) 100,00 %
07.06.2023 18:18 23,4 C 27,2 C 20,0 C 70 % 1017,9 hPa 0,0 l/m 2 min 0 min 450 W/m 9,7 km/h (2 Bft) 100,00 %
07.06.2023 18:20 23,4 C 27,2 C 20,0 C 69 % 1017,9 hPa 0,0 l/m 2 min 0 min 429 W/m 9,7 km/h (2 Bft) 100,00 %
07.06.2023 18:22 23,6 C 27,2 C 20,0 C 69 % 1017,8 hPa 0,0 l/m 2 min 0 min 467 W/m 6,4 km/h (2 Bft) 100,00 %
07.06.2023 18:24 23,6 C 27,8 C 20,6 C 69 % 1017,8 hPa 0,0 l/m 2 min 0 min 486 W/m 6,4 km/h (2 Bft) 100,00 %
07.06.2023 18:26 23,8 C 28,3 C 20,6 C 69 % 1017,8 hPa 0,0 l/m 2 min 0 min 472 W/m 6,4 km/h (2 Bft) 100,00 %
07.06.2023 18:28 23,9 C 28,9 C 20,6 C 68 % 1017,7 hPa 0,0 l/m 2 min 0 min 444 W/m 12,9 km/h (3 Bft) 100,00 %
07.06.2023 18:30 23,9 C 28,3 C 20,6 C 68 % 1017,7 hPa 0,0 l/m 2 min 0 min 388 W/m 6,4 km/h (2 Bft) 100,00 %
07.06.2023 18:32 24,1 C 28,3 C 20,6 C 68 % 1017,7 hPa 0,0 l/m 2 min 0 min 401 W/m 9,7 km/h (2 Bft) 100,00 %
07.06.2023 18:34 24,1 C 27,2 C 20,6 C 67 % 1017,7 hPa 0,0 l/m 2 min 0 min 361 W/m 9,7 km/h (2 Bft) 100,00 %
07.06.2023 18:36 24,1 C 26,7 C 20,0 C 66 % 1017,6 hPa 0,0 l/m 2 min 0 min 298 W/m 12,9 km/h (3 Bft) 97,83 %
07.06.2023 18:38 24,1 C 25,6 C 20,0 C 67 % 1017,7 hPa 0,0 l/m 0 min 0 min 150 W/m 12,9 km/h (3 Bft) 100,00 %
07.06.2023 18:40 24,0 C 25,0 C 20,0 C 67 % 1017,7 hPa 0,0 l/m 0 min 0 min 152 W/m 12,9 km/h (3 Bft) 100,00 %
07.06.2023 18:42 23,9 C 24,4 C 19,4 C 67 % 1017,7 hPa 0,0 l/m 0 min 0 min 134 W/m 6,4 km/h (2 Bft) 100,00 %
07.06.2023 18:44 23,9 C 23,9 C 19,4 C 67 % 1017,7 hPa 0,0 l/m 0 min 0 min 123 W/m 16,1 km/h (3 Bft) 100,00 %
07.06.2023 18:46 23,8 C 23,3 C 18,9 C 67 % 1017,6 hPa 0,0 l/m 0 min 0 min 125 W/m 6,4 km/h (2 Bft) 97,87 %
07.06.2023 18:48 23,7 C 23,3 C 18,9 C 67 % 1017,7 hPa 0,0 l/m 0 min 0 min 122 W/m 6,4 km/h (2 Bft) 100,00 %
07.06.2023 18:50 23,6 C 23,3 C 18,9 C 67 % 1017,7 hPa 0,0 l/m 0 min 0 min 119 W/m 6,4 km/h (2 Bft) 100,00 %
07.06.2023 18:52 23,6 C 23,3 C 18,9 C 67 % 1017,6 hPa 0,0 l/m 0 min 0 min 140 W/m 6,4 km/h (2 Bft) 97,14 %
07.06.2023 18:54 23,5 C 24,4 C 18,9 C 67 % 1017,6 hPa 0,0 l/m 2 min 0 min 271 W/m 12,9 km/h (3 Bft) 97,87 %
07.06.2023 18:56 23,4 C 25,0 C 18,9 C 68 % 1017,6 hPa 0,0 l/m 2 min 0 min 271 W/m 9,7 km/h (2 Bft) 100,00 %
07.06.2023 18:58 23,4 C 25,0 C 18,9 C 67 % 1017,6 hPa 0,0 l/m 2 min 0 min 222 W/m 6,4 km/h (2 Bft) 100,00 %
07.06.2023 19:00 23,4 C 26,1 C 19,4 C 68 % 1017,6 hPa 0,0 l/m 2 min 0 min 354 W/m 6,4 km/h (2 Bft) 100,00 %
07.06.2023 19:02 23,5 C 27,2 C 20,0 C 67 % 1017,6 hPa 0,0 l/m 2 min 0 min 348 W/m 12,9 km/h (3 Bft) 97,87 %
07.06.2023 19:04 23,6 C 27,2 C 20,0 C 68 % 1017,6 hPa 0,0 l/m 2 min 0 min 327 W/m 6,4 km/h (2 Bft) 97,87 %
07.06.2023 19:06 23,7 C 26,7 C 20,0 C 67 % 1017,6 hPa 0,0 l/m 2 min 0 min 253 W/m 12,9 km/h (3 Bft) 98,31 %
07.06.2023 19:08 23,7 C 25,6 C 20,0 C 67 % 1017,6 hPa 0,0 l/m 2 min 0 min 200 W/m 12,9 km/h (3 Bft) 97,14 %
07.06.2023 19:10 23,7 C 25,6 C 19,4 C 68 % 1017,6 hPa 0,0 l/m 0 min 0 min 146 W/m 9,7 km/h (2 Bft) 93,62 %
07.06.2023 19:12 23,7 C 25,0 C 19,4 C 68 % 1017,6 hPa 0,0 l/m 0 min 0 min 170 W/m 6,4 km/h (2 Bft) 97,87 %
07.06.2023 19:14 23,6 C 23,9 C 18,9 C 67 % 1017,6 hPa 0,0 l/m 0 min 0 min 151 W/m 6,4 km/h (2 Bft) 95,74 %
07.06.2023 19:16 23,5 C 23,3 C 18,9 C 66 % 1017,6 hPa 0,0 l/m 0 min 0 min 128 W/m 6,4 km/h (2 Bft) 95,74 %
07.06.2023 19:18 23,5 C 23,3 C 18,9 C 67 % 1017,6 hPa 0,0 l/m 0 min 0 min 142 W/m 6,4 km/h (2 Bft) 97,87 %
07.06.2023 19:20 23,4 C 23,3 C 18,9 C 66 % 1017,6 hPa 0,0 l/m 0 min 0 min 164 W/m 16,1 km/h (3 Bft) 97,83 %
07.06.2023 19:22 23,3 C 23,3 C 18,9 C 68 % 1017,6 hPa 0,0 l/m 2 min 0 min 217 W/m 6,4 km/h (2 Bft) 97,87 %
07.06.2023 19:24 23,3 C 24,4 C 18,9 C 68 % 1017,6 hPa 0,0 l/m 2 min 0 min 317 W/m 6,4 km/h (2 Bft) 95,74 %
07.06.2023 19:26 23,4 C 25,0 C 18,9 C 68 % 1017,6 hPa 0,0 l/m 2 min 0 min 324 W/m 12,9 km/h (3 Bft) 97,87 %
07.06.2023 19:28 23,4 C 25,0 C 18,9 C 67 % 1017,5 hPa 0,0 l/m 2 min 0 min 298 W/m 6,4 km/h (2 Bft) 97,87 %
07.06.2023 19:30 23,4 C 25,0 C 19,4 C 68 % 1017,6 hPa 0,0 l/m 2 min 0 min 263 W/m 9,7 km/h (2 Bft) 97,87 %
07.06.2023 19:32 23,5 C 23,9 C 18,9 C 68 % 1017,5 hPa 0,0 l/m 2 min 0 min 158 W/m 19,3 km/h (3 Bft) 97,83 %
07.06.2023 19:34 23,4 C 23,3 C 18,9 C 68 % 1017,6 hPa 0,0 l/m 0 min 0 min 100 W/m 16,1 km/h (3 Bft) 97,87 %
07.06.2023 19:36 23,3 C 23,3 C 18,9 C 68 % 1017,6 hPa 0,0 l/m 0 min 0 min 90 W/m 12,9 km/h (3 Bft) 100,00 %
07.06.2023 19:38 23,2 C 22,8 C 18,3 C 69 % 1017,6 hPa 0,0 l/m 0 min 0 min 81 W/m 12,9 km/h (3 Bft) 95,74 %
07.06.2023 19:40 23,1 C 22,2 C 18,3 C 70 % 1017,7 hPa 0,0 l/m 0 min 0 min 69 W/m 9,7 km/h (2 Bft) 97,87 %
07.06.2023 19:42 22,9 C 21,7 C 17,8 C 70 % 1017,7 hPa 0,0 l/m 0 min 0 min 61 W/m 12,9 km/h (3 Bft) 97,87 %
07.06.2023 19:44 22,7 C 21,7 C 17,8 C 71 % 1017,7 hPa 0,0 l/m 0 min 0 min 62 W/m 12,9 km/h (3 Bft) 97,87 %
07.06.2023 19:46 22,6 C 21,7 C 17,8 C 71 % 1017,8 hPa 0,0 l/m 0 min 0 min 62 W/m 16,1 km/h (3 Bft) 91,30 %
07.06.2023 19:48 22,4 C 21,1 C 17,2 C 71 % 1017,8 hPa 0,0 l/m 0 min 0 min 57 W/m 19,3 km/h (3 Bft) 97,87 %
07.06.2023 19:50 22,2 C 21,1 C 17,2 C 71 % 1017,8 hPa 0,0 l/m 0 min 0 min 53 W/m 19,3 km/h (3 Bft) 97,87 %
07.06.2023 19:52 22,1 C 20,6 C 17,2 C 71 % 1017,8 hPa 0,0 l/m 0 min 0 min 49 W/m 19,3 km/h (3 Bft) 97,87 %
07.06.2023 19:54 21,9 C 20,6 C 17,2 C 72 % 1017,9 hPa 0,0 l/m 0 min 0 min 48 W/m 12,9 km/h (3 Bft) 97,87 %
07.06.2023 19:56 21,8 C 20,6 C 17,2 C 73 % 1017,8 hPa 0,0 l/m 0 min 0 min 47 W/m 12,9 km/h (3 Bft) 93,62 %
07.06.2023 19:58 21,7 C 20,6 C 16,7 C 74 % 1017,8 hPa 0,0 l/m 0 min 0 min 47 W/m 6,4 km/h (2 Bft) 93,62 %
07.06.2023 20:00 21,6 C 20,6 C 16,7 C 74 % 1017,9 hPa 0,0 l/m 0 min 0 min 45 W/m 6,4 km/h (2 Bft) 95,65 %
07.06.2023 20:02 21,6 C 20,6 C 16,7 C 75 % 1017,8 hPa 0,0 l/m 0 min 0 min 44 W/m 6,4 km/h (2 Bft) 95,74 %
07.06.2023 20:04 21,5 C 20,6 C 16,7 C 76 % 1017,8 hPa 0,0 l/m 0 min 0 min 44 W/m 6,4 km/h (2 Bft) 97,92 %
07.06.2023 20:06 21,4 C 20,6 C 16,7 C 76 % 1017,8 hPa 0,0 l/m 0 min 0 min 44 W/m 6,4 km/h (2 Bft) 94,92 %
07.06.2023 20:08 21,3 C 20,6 C 16,7 C 76 % 1017,8 hPa 0,0 l/m 0 min 0 min 45 W/m 6,4 km/h (2 Bft) 97,14 %
07.06.2023 20:10 21,2 C 20,6 C 16,7 C 76 % 1017,7 hPa 0,0 l/m 0 min 0 min 46 W/m 6,4 km/h (2 Bft) 97,87 %
07.06.2023 20:12 21,2 C 20,6 C 16,7 C 76 % 1017,7 hPa 0,0 l/m 0 min 0 min 46 W/m 6,4 km/h (2 Bft) 95,65 %
07.06.2023 20:14 21,1 C 20,6 C 16,7 C 76 % 1017,8 hPa 0,0 l/m 0 min 0 min 47 W/m 6,4 km/h (2 Bft) 97,83 %
07.06.2023 20:16 21,1 C 20,0 C 16,7 C 75 % 1017,8 hPa 0,0 l/m 0 min 0 min 48 W/m 12,9 km/h (3 Bft) 95,74 %
07.06.2023 20:18 21,1 C 20,6 C 16,7 C 75 % 1017,8 hPa 0,0 l/m 0 min 0 min 48 W/m 6,4 km/h (2 Bft) 95,74 %
07.06.2023 20:20 21,1 C 20,6 C 16,7 C 76 % 1017,8 hPa 0,0 l/m 0 min 0 min 47 W/m 3,2 km/h (1 Bft) 95,74 %
07.06.2023 20:22 21,1 C 20,6 C 16,7 C 76 % 1017,8 hPa 0,0 l/m 0 min 0 min 49 W/m 6,4 km/h (2 Bft) 97,87 %
07.06.2023 20:24 21,1 C 20,6 C 16,7 C 76 % 1017,8 hPa 0,0 l/m 0 min 0 min 49 W/m 6,4 km/h (2 Bft) 97,87 %
07.06.2023 20:26 21,1 C 20,6 C 16,7 C 76 % 1017,8 hPa 0,0 l/m 0 min 0 min 50 W/m 0,0 km/h (0 Bft) 97,87 %
07.06.2023 20:28 21,1 C 20,6 C 16,7 C 76 % 1017,8 hPa 0,0 l/m 0 min 0 min 52 W/m 6,4 km/h (2 Bft) 95,65 %
07.06.2023 20:30 21,1 C 20,6 C 16,7 C 76 % 1017,8 hPa 0,0 l/m 0 min 0 min 54 W/m 6,4 km/h (2 Bft) 97,87 %
07.06.2023 20:32 21,1 C 20,6 C 16,7 C 76 % 1017,8 hPa 0,0 l/m 0 min 0 min 56 W/m 3,2 km/h (1 Bft) 93,62 %
07.06.2023 20:34 21,1 C 20,6 C 16,7 C 76 % 1017,8 hPa 0,0 l/m 0 min 0 min 58 W/m 3,2 km/h (1 Bft) 97,87 %
07.06.2023 20:36 21,1 C 20,6 C 16,7 C 76 % 1017,8 hPa 0,0 l/m 0 min 0 min 58 W/m 3,2 km/h (1 Bft) 95,74 %
07.06.2023 20:38 21,1 C 20,6 C 16,7 C 76 % 1017,8 hPa 0,0 l/m 0 min 0 min 54 W/m 0,0 km/h (0 Bft) 97,87 %
07.06.2023 20:40 21,1 C 20,6 C 16,7 C 76 % 1017,7 hPa 0,0 l/m 0 min 0 min 53 W/m 6,4 km/h (2 Bft) 97,87 %
07.06.2023 20:42 21,1 C 20,6 C 16,7 C 77 % 1017,8 hPa 0,0 l/m 0 min 0 min 53 W/m 6,4 km/h (2 Bft) 95,74 %
07.06.2023 20:44 21,1 C 20,6 C 16,7 C 76 % 1017,8 hPa 0,0 l/m 0 min 0 min 53 W/m 9,7 km/h (2 Bft) 97,83 %
07.06.2023 20:46 21,1 C 20,6 C 16,7 C 76 % 1017,7 hPa 0,0 l/m 0 min 0 min 50 W/m 6,4 km/h (2 Bft) 89,36 %
07.06.2023 20:48 21,1 C 20,0 C 16,7 C 76 % 1017,7 hPa 0,0 l/m 0 min 0 min 48 W/m 3,2 km/h (1 Bft) 97,87 %
07.06.2023 20:50 21,0 C 20,6 C 16,7 C 76 % 1017,7 hPa 0,0 l/m 0 min 0 min 47 W/m 3,2 km/h (1 Bft) 97,87 %
07.06.2023 20:52 21,0 C 20,0 C 16,7 C 76 % 1017,7 hPa 0,0 l/m 0 min 0 min 46 W/m 6,4 km/h (2 Bft) 97,87 %
07.06.2023 20:54 21,0 C 20,0 C 16,7 C 77 % 1017,7 hPa 0,0 l/m 0 min 0 min 46 W/m 3,2 km/h (1 Bft) 95,74 %
07.06.2023 20:56 21,0 C 20,0 C 16,7 C 77 % 1017,8 hPa 0,0 l/m 0 min 0 min 45 W/m 6,4 km/h (2 Bft) 95,74 %
07.06.2023 20:58 21,0 C 20,0 C 16,7 C 77 % 1017,8 hPa 0,0 l/m 0 min 0 min 41 W/m 6,4 km/h (2 Bft) 95,65 %
07.06.2023 21:00 20,9 C 20,0 C 16,1 C 77 % 1017,7 hPa 0,0 l/m 0 min 0 min 37 W/m 3,2 km/h (1 Bft) 95,74 %
07.06.2023 21:02 20,9 C 20,0 C 16,1 C 77 % 1017,8 hPa 0,0 l/m 0 min 0 min 33 W/m 3,2 km/h (1 Bft) 95,74 %
07.06.2023 21:04 20,9 C 20,0 C 16,1 C 77 % 1017,8 hPa 0,0 l/m 0 min 0 min 32 W/m 3,2 km/h (1 Bft) 97,92 %
07.06.2023 21:06 20,9 C 20,0 C 16,1 C 77 % 1017,8 hPa 0,0 l/m 0 min 0 min 32 W/m 9,7 km/h (2 Bft) 98,31 %
07.06.2023 21:08 20,9 C 20,0 C 16,1 C 78 % 1017,8 hPa 0,0 l/m 0 min 0 min 30 W/m 3,2 km/h (1 Bft) 97,14 %
07.06.2023 21:10 20,8 C 20,0 C 16,1 C 78 % 1017,8 hPa 0,0 l/m 0 min 0 min 30 W/m 3,2 km/h (1 Bft) 97,87 %
07.06.2023 21:12 20,8 C 20,0 C 16,1 C 78 % 1017,9 hPa 0,0 l/m 0 min 0 min 29 W/m 0,0 km/h (0 Bft) 97,87 %
07.06.2023 21:14 20,8 C 20,0 C 16,1 C 78 % 1017,9 hPa 0,0 l/m 0 min 0 min 28 W/m 3,2 km/h (1 Bft) 97,87 %
07.06.2023 21:16 20,8 C 19,4 C 16,1 C 78 % 1017,9 hPa 0,0 l/m 2 min 0 min 28 W/m 3,2 km/h (1 Bft) 97,87 %
07.06.2023 21:18 20,7 C 19,4 C 16,1 C 78 % 1017,9 hPa 0,0 l/m 2 min 0 min 28 W/m 3,2 km/h (1 Bft) 97,83 %
07.06.2023 21:20 20,7 C 19,4 C 16,1 C 79 % 1017,9 hPa 0,0 l/m 2 min 0 min 28 W/m 0,0 km/h (0 Bft) 97,87 %
07.06.2023 21:22 20,7 C 19,4 C 16,1 C 79 % 1017,9 hPa 0,0 l/m 2 min 0 min 26 W/m 3,2 km/h (1 Bft) 97,87 %
07.06.2023 21:24 20,7 C 19,4 C 16,1 C 79 % 1017,9 hPa 0,0 l/m 2 min 0 min 25 W/m 0,0 km/h (0 Bft) 97,87 %
07.06.2023 21:26 20,6 C 19,4 C 16,1 C 79 % 1017,9 hPa 0,0 l/m 2 min 0 min 24 W/m 0,0 km/h (0 Bft) 97,87 %
07.06.2023 21:28 20,6 C 19,4 C 16,1 C 79 % 1017,9 hPa 0,0 l/m 2 min 0 min 21 W/m 3,2 km/h (1 Bft) 97,87 %
07.06.2023 21:30 20,6 C 19,4 C 16,1 C 79 % 1018,0 hPa 0,0 l/m 0 min 0 min 19 W/m 0,0 km/h (0 Bft) 95,74 %
07.06.2023 21:32 20,6 C 19,4 C 16,1 C 79 % 1018,0 hPa 0,0 l/m 0 min 0 min 15 W/m 3,2 km/h (1 Bft) 100,00 %
07.06.2023 21:34 20,6 C 19,4 C 16,1 C 79 % 1017,9 hPa 0,0 l/m 0 min 0 min 13 W/m 0,0 km/h (0 Bft) 97,87 %
07.06.2023 21:36 20,5 C 19,4 C 15,6 C 79 % 1018,0 hPa 0,0 l/m 0 min 0 min 11 W/m 6,4 km/h (2 Bft) 100,00 %
07.06.2023 21:38 20,5 C 19,4 C 15,6 C 79 % 1018,0 hPa 0,0 l/m 0 min 0 min 11 W/m 3,2 km/h (1 Bft) 100,00 %
07.06.2023 21:40 20,5 C 19,4 C 15,6 C 80 % 1018,0 hPa 0,0 l/m 0 min 0 min 9 W/m 0,0 km/h (0 Bft) 100,00 %
07.06.2023 21:42 20,4 C 19,4 C 15,6 C 80 % 1017,9 hPa 0,0 l/m 0 min 0 min 7 W/m 0,0 km/h (0 Bft) 100,00 %
07.06.2023 21:44 20,4 C 19,4 C 15,6 C 80 % 1017,9 hPa 0,0 l/m 0 min 0 min 7 W/m 0,0 km/h (0 Bft) 100,00 %
07.06.2023 21:46 20,4 C 19,4 C 15,6 C 80 % 1018,0 hPa 0,0 l/m 0 min 0 min 6 W/m 0,0 km/h (0 Bft) 97,87 %
07.06.2023 21:48 20,4 C 19,4 C 15,6 C 80 % 1018,0 hPa 0,0 l/m 0 min 0 min 5 W/m 0,0 km/h (0 Bft) 100,00 %
07.06.2023 21:50 20,4 C 18,9 C 15,6 C 80 % 1018,0 hPa 0,0 l/m 0 min 0 min 5 W/m 0,0 km/h (0 Bft) 100,00 %
07.06.2023 21:52 20,4 C 18,9 C 15,6 C 80 % 1018,0 hPa 0,0 l/m 0 min 0 min 2 W/m 0,0 km/h (0 Bft) 97,87 %
07.06.2023 21:54 20,4 C 18,9 C 15,6 C 80 % 1018,0 hPa 0,0 l/m 0 min 0 min 0 W/m 0,0 km/h (0 Bft) 100,00 %
07.06.2023 21:56 20,3 C 18,9 C 15,6 C 80 % 1018,0 hPa 0,0 l/m 0 min 0 min 0 W/m 0,0 km/h (0 Bft) 100,00 %
07.06.2023 21:58 20,3 C 18,9 C 15,6 C 80 % 1018,0 hPa 0,0 l/m 0 min 0 min 0 W/m 0,0 km/h (0 Bft) 100,00 %
07.06.2023 22:00 20,3 C 18,9 C 15,6 C 81 % 1018,1 hPa 0,0 l/m 0 min 0 min 0 W/m 0,0 km/h (0 Bft) 100,00 %
07.06.2023 22:02 20,3 C 18,9 C 15,0 C 81 % 1018,0 hPa 0,0 l/m 0 min 0 min 0 W/m 0,0 km/h (0 Bft) 100,00 %
07.06.2023 22:04 20,2 C 18,9 C 15,0 C 81 % 1018,0 hPa 0,0 l/m 0 min 0 min 0 W/m 0,0 km/h (0 Bft) 100,00 %
07.06.2023 22:06 20,2 C 18,9 C 15,0 C 81 % 1018,0 hPa 0,0 l/m 0 min 0 min 0 W/m 0,0 km/h (0 Bft) 100,00 %
07.06.2023 22:08 20,2 C 18,9 C 15,0 C 81 % 1018,0 hPa 0,0 l/m 0 min 0 min 0 W/m 0,0 km/h (0 Bft) 100,00 %
07.06.2023 22:10 20,2 C 18,9 C 15,0 C 81 % 1018,0 hPa 0,0 l/m 0 min 0 min 0 W/m 0,0 km/h (0 Bft) 97,87 %
07.06.2023 22:12 20,1 C 18,9 C 15,0 C 81 % 1018,0 hPa 0,0 l/m 0 min 0 min 0 W/m 0,0 km/h (0 Bft) 97,83 %
07.06.2023 22:14 20,1 C 18,9 C 15,0 C 81 % 1018,0 hPa 0,0 l/m 0 min 0 min 0 W/m 0,0 km/h (0 Bft) 100,00 %
07.06.2023 22:16 20,1 C 18,9 C 15,0 C 82 % 1018,0 hPa 0,0 l/m 0 min 0 min 0 W/m 0,0 km/h (0 Bft) 97,87 %
07.06.2023 22:18 20,1 C 18,9 C 15,0 C 82 % 1018,0 hPa 0,0 l/m 0 min 0 min 0 W/m 0,0 km/h (0 Bft) 100,00 %
07.06.2023 22:20 20,0 C 18,9 C 15,0 C 82 % 1018,0 hPa 0,0 l/m 0 min 0 min 0 W/m 0,0 km/h (0 Bft) 100,00 %
07.06.2023 22:22 20,0 C 18,3 C 15,0 C 82 % 1018,0 hPa 0,0 l/m 0 min 0 min 0 W/m 0,0 km/h (0 Bft) 100,00 %
07.06.2023 22:24 19,9 C 18,3 C 15,0 C 82 % 1018,0 hPa 0,0 l/m 0 min 0 min 0 W/m 0,0 km/h (0 Bft) 97,87 %
07.06.2023 22:26 19,9 C 18,3 C 15,0 C 82 % 1018,0 hPa 0,0 l/m 0 min 0 min 0 W/m 0,0 km/h (0 Bft) 97,83 %
07.06.2023 22:28 19,9 C 18,9 C 15,0 C 83 % 1018,0 hPa 0,0 l/m 0 min 0 min 0 W/m 0,0 km/h (0 Bft) 95,74 %
07.06.2023 22:30 19,8 C 18,9 C 15,0 C 83 % 1018,0 hPa 0,0 l/m 0 min 0 min 0 W/m 0,0 km/h (0 Bft) 97,87 %
07.06.2023 22:32 19,8 C 18,9 C 15,0 C 83 % 1018,0 hPa 0,0 l/m 0 min 0 min 0 W/m 0,0 km/h (0 Bft) 95,74 %
07.06.2023 22:34 19,8 C 18,9 C 15,0 C 83 % 1018,0 hPa 0,0 l/m 0 min 2 min 0 W/m 0,0 km/h (0 Bft) 95,74 %
07.06.2023 22:36 19,8 C 18,9 C 15,0 C 84 % 1018,0 hPa 0,0 l/m 0 min 2 min 0 W/m 0,0 km/h (0 Bft) 95,74 %
07.06.2023 22:38 19,8 C 18,3 C 15,0 C 84 % 1018,0 hPa 0,0 l/m 0 min 0 min 0 W/m 0,0 km/h (0 Bft) 95,74 %
07.06.2023 22:40 19,8 C 18,3 C 15,0 C 84 % 1018,0 hPa 0,0 l/m 0 min 0 min 0 W/m 0,0 km/h (0 Bft) 97,83 %
07.06.2023 22:42 19,8 C 18,3 C 15,0 C 84 % 1017,9 hPa 0,0 l/m 0 min 0 min 0 W/m 0,0 km/h (0 Bft) 93,62 %
07.06.2023 22:44 19,7 C 18,3 C 15,0 C 85 % 1017,9 hPa 0,0 l/m 0 min 0 min 0 W/m 0,0 km/h (0 Bft) 97,87 %
07.06.2023 22:46 19,7 C 18,3 C 15,0 C 85 % 1018,0 hPa 0,0 l/m 0 min 0 min 0 W/m 0,0 km/h (0 Bft) 95,74 %
07.06.2023 22:48 19,7 C 18,3 C 15,0 C 85 % 1017,9 hPa 0,0 l/m 0 min 0 min 0 W/m 0,0 km/h (0 Bft) 95,74 %
07.06.2023 22:50 19,7 C 18,3 C 14,4 C 85 % 1017,9 hPa 0,0 l/m 0 min 0 min 0 W/m 0,0 km/h (0 Bft) 95,74 %
07.06.2023 22:52 19,7 C 18,3 C 14,4 C 85 % 1018,0 hPa 0,0 l/m 0 min 0 min 0 W/m 0,0 km/h (0 Bft) 91,89 %
07.06.2023 22:54 19,6 C 18,3 C 14,4 C 85 % 1018,0 hPa 0,0 l/m 0 min 0 min 0 W/m 0,0 km/h (0 Bft) 95,74 %
07.06.2023 22:56 19,6 C 18,3 C 14,4 C 85 % 1017,9 hPa 0,0 l/m 0 min 0 min 0 W/m 0,0 km/h (0 Bft) 95,65 %
07.06.2023 22:58 19,5 C 18,3 C 14,4 C 85 % 1017,9 hPa 0,0 l/m 0 min 0 min 0 W/m 0,0 km/h (0 Bft) 82,98 %
07.06.2023 23:00 19,4 C 18,3 C 14,4 C 85 % 1017,9 hPa 0,0 l/m 0 min 0 min 0 W/m 0,0 km/h (0 Bft) 97,29 %
07.06.2023 23:02 19,4 C 18,3 C 15,0 C 85 % 1017,9 hPa 0,0 l/m 0 min 0 min 0 W/m 0,0 km/h (0 Bft) 93,18 %
07.06.2023 23:04 19,4 C 18,3 C 14,4 C 85 % 1017,9 hPa 0,0 l/m 0 min 0 min 0 W/m 0,0 km/h (0 Bft) 93,62 %
07.06.2023 23:06 19,3 C 18,3 C 14,4 C 84 % 1018,0 hPa 0,0 l/m 0 min 0 min 0 W/m 0,0 km/h (0 Bft) 89,66 %
07.06.2023 23:08 19,3 C 18,3 C 14,4 C 84 % 1017,9 hPa 0,0 l/m 0 min 0 min 0 W/m 3,2 km/h (1 Bft) 91,67 %
07.06.2023 23:10 19,3 C 18,3 C 14,4 C 84 % 1018,0 hPa 0,0 l/m 0 min 0 min 0 W/m 0,0 km/h (0 Bft) 91,30 %
07.06.2023 23:12 19,3 C 18,3 C 14,4 C 84 % 1018,0 hPa 0,0 l/m 0 min 0 min 0 W/m 3,2 km/h (1 Bft) 93,62 %
07.06.2023 23:14 19,2 C 18,3 C 14,4 C 84 % 1018,0 hPa 0,0 l/m 0 min 0 min 0 W/m 0,0 km/h (0 Bft) 93,62 %
07.06.2023 23:16 19,2 C 18,3 C 14,4 C 84 % 1018,0 hPa 0,0 l/m 0 min 0 min 0 W/m 3,2 km/h (1 Bft) 95,74 %
07.06.2023 23:18 19,2 C 18,3 C 14,4 C 84 % 1018,0 hPa 0,0 l/m 0 min 0 min 0 W/m 3,2 km/h (1 Bft) 95,74 %
07.06.2023 23:20 19,1 C 18,3 C 14,4 C 84 % 1018,0 hPa 0,0 l/m 0 min 0 min 0 W/m 3,2 km/h (1 Bft) 95,74 %
07.06.2023 23:22 19,1 C 18,3 C 14,4 C 84 % 1018,0 hPa 0,0 l/m 0 min 0 min 0 W/m 0,0 km/h (0 Bft) 97,87 %
07.06.2023 23:24 19,1 C 18,3 C 14,4 C 83 % 1018,0 hPa 0,0 l/m 0 min 0 min 0 W/m 6,4 km/h (2 Bft) 97,83 %
07.06.2023 23:26 19,1 C 18,3 C 14,4 C 83 % 1018,0 hPa 0,0 l/m 0 min 0 min 0 W/m 0,0 km/h (0 Bft) 95,74 %
07.06.2023 23:28 19,1 C 18,3 C 14,4 C 83 % 1018,0 hPa 0,0 l/m 0 min 0 min 0 W/m 0,0 km/h (0 Bft) 97,87 %
07.06.2023 23:30 19,0 C 18,3 C 14,4 C 83 % 1018,0 hPa 0,0 l/m 0 min 0 min 0 W/m 3,2 km/h (1 Bft) 95,74 %
07.06.2023 23:32 19,0 C 18,3 C 14,4 C 83 % 1018,0 hPa 0,0 l/m 0 min 0 min 0 W/m 0,0 km/h (0 Bft) 97,87 %
07.06.2023 23:34 19,0 C 17,8 C 14,4 C 83 % 1018,0 hPa 0,0 l/m 0 min 0 min 0 W/m 0,0 km/h (0 Bft) 97,87 %
07.06.2023 23:36 19,0 C 17,8 C 14,4 C 83 % 1018,0 hPa 0,0 l/m 0 min 0 min 0 W/m 0,0 km/h (0 Bft) 97,87 %
07.06.2023 23:38 19,0 C 17,8 C 14,4 C 83 % 1018,0 hPa 0,0 l/m 0 min 0 min 0 W/m 0,0 km/h (0 Bft) 97,83 %
07.06.2023 23:40 18,9 C 17,8 C 14,4 C 83 % 1018,0 hPa 0,0 l/m 0 min 0 min 0 W/m 3,2 km/h (1 Bft) 97,87 %
07.06.2023 23:42 18,9 C 17,8 C 14,4 C 83 % 1018,0 hPa 0,0 l/m 0 min 0 min 0 W/m 3,2 km/h (1 Bft) 100,00 %
07.06.2023 23:44 18,9 C 17,8 C 14,4 C 83 % 1018,0 hPa 0,0 l/m 0 min 0 min 0 W/m 3,2 km/h (1 Bft) 100,00 %
07.06.2023 23:46 18,9 C 17,8 C 14,4 C 83 % 1018,0 hPa 0,0 l/m 0 min 0 min 0 W/m 3,2 km/h (1 Bft) 100,00 %
07.06.2023 23:48 18,8 C 17,8 C 14,4 C 83 % 1018,1 hPa 0,0 l/m 0 min 0 min 0 W/m 6,4 km/h (2 Bft) 100,00 %
07.06.2023 23:50 18,8 C 17,8 C 14,4 C 83 % 1018,0 hPa 0,0 l/m 0 min 0 min 0 W/m 0,0 km/h (0 Bft) 97,87 %
07.06.2023 23:52 18,8 C 17,8 C 14,4 C 83 % 1018,0 hPa 0,0 l/m 0 min 0 min 0 W/m 0,0 km/h (0 Bft) 100,00 %
07.06.2023 23:54 18,8 C 17,8 C 14,4 C 82 % 1018,0 hPa 0,0 l/m 0 min 0 min 0 W/m 0,0 km/h (0 Bft) 100,00 %
07.06.2023 23:56 18,8 C 17,8 C 14,4 C 82 % 1018,0 hPa 0,0 l/m 0 min 0 min 0 W/m 0,0 km/h (0 Bft) 100,00 %
07.06.2023 23:58 18,8 C 17,8 C 14,4 C 82 % 1018,0 hPa 0,0 l/m 0 min 0 min 0 W/m 0,0 km/h (0 Bft) 100,00 %
_ Min-Zeit 12:42 03:28 11:02 18:36 19:28 - - - - 02:00 13:12
Minimum _ 15,2 C 15,0 C 11,1 C 66 % 1017,5 hPa - - - - 0,0 km/h (0 Bft) 20,00 %
_ Max-Zeit 18:32 18:28 17:58 12:32 10:50 11:08 18:12 10:38 14:42 14:04 00:42
Maximum _ 24,1 C 28,9 C 20,6 C 93 % 1020,8 hPa 0,2 l/m 4 min 2 min 1152 W/m 22,5 km/h
NW (4 Bft)
100,00 %
Durchschnitt _ 18,7 C 18,7 C 14,5 C 80 % 1019,2 hPa #0,4 l/m #3:28 h #1:02 h 216 W/m 6,4 km/h (2 Bft) 97,14 %
© 2023 W. Hausmann